VIR127C EGCC-KJFK
Flight info
| Callsign | VIR127C |
|---|---|
| Flight time | 6h 48m |
| Altitude | 38000 |
| Route | EKLAD UY53 WAL L10 PENIL M144 BAGSO DCT RESNO/M085F400 DCT 55N020W 5430N03000W 53N040W 51N050W DCT ALLRY/N0488F400 DCT MIILS DCT ENE PARCH4 |
| Aircraft | A35K/H-SDE2E3GHIJ3J4J5LM1ORWXY/LB1D1 |
Departure
| Time | 2026-05-07 14:08 |
|---|---|
| Airport | Manchester Airport (EGCC) |
Arrival
| Time | 2026-05-07 20:57 |
|---|---|
| Airport | John F. Kennedy International Airport (KJFK) |
| Time | Latitude | Longitude | Altitude | Speed | Heading |
|---|---|---|---|---|---|
| 2026-05-07 12:48 | 53.36701 | -2.28476 | 261 ft | 0 kts | 135° |
| 2026-05-07 13:54 | 53.36713 | -2.28496 | 262 ft | 4 kts | 135° |
| 2026-05-07 13:54 | 53.36732 | -2.28528 | 263 ft | 4 kts | 135° |
| 2026-05-07 13:55 | 53.36747 | -2.28553 | 265 ft | 4 kts | 151° |
| 2026-05-07 13:55 | 53.36767 | -2.28554 | 266 ft | 4 kts | 217° |
| 2026-05-07 13:55 | 53.36786 | -2.28525 | 263 ft | 4 kts | 224° |
| 2026-05-07 13:55 | 53.36805 | -2.28494 | 265 ft | 4 kts | 224° |
| 2026-05-07 13:56 | 53.36811 | -2.28485 | 265 ft | 0 kts | 224° |
| 2026-05-07 13:59 | 53.36810 | -2.28485 | 265 ft | 1 kts | 224° |
| 2026-05-07 14:00 | 53.36793 | -2.28513 | 261 ft | 7 kts | 225° |
| 2026-05-07 14:00 | 53.36752 | -2.28581 | 261 ft | 9 kts | 225° |
| 2026-05-07 14:00 | 53.36704 | -2.28661 | 261 ft | 10 kts | 224° |
| 2026-05-07 14:00 | 53.36655 | -2.28739 | 261 ft | 7 kts | 224° |
| 2026-05-07 14:01 | 53.36612 | -2.28781 | 261 ft | 7 kts | 181° |
| 2026-05-07 14:01 | 53.36571 | -2.28741 | 261 ft | 8 kts | 139° |
| 2026-05-07 14:01 | 53.36529 | -2.28672 | 261 ft | 9 kts | 135° |
| 2026-05-07 14:01 | 53.36480 | -2.28590 | 261 ft | 11 kts | 135° |
| 2026-05-07 14:02 | 53.36420 | -2.28506 | 261 ft | 12 kts | 153° |
| 2026-05-07 14:02 | 53.36341 | -2.28452 | 261 ft | 13 kts | 148° |
| 2026-05-07 14:02 | 53.36273 | -2.28348 | 261 ft | 14 kts | 135° |
| 2026-05-07 14:02 | 53.36202 | -2.28229 | 261 ft | 15 kts | 135° |
| 2026-05-07 14:03 | 53.36126 | -2.28102 | 261 ft | 16 kts | 135° |
| 2026-05-07 14:03 | 53.36041 | -2.27975 | 261 ft | 16 kts | 137° |
| 2026-05-07 14:03 | 53.35970 | -2.27875 | 261 ft | 12 kts | 145° |
| 2026-05-07 14:03 | 53.35893 | -2.27853 | 261 ft | 10 kts | 176° |
| 2026-05-07 14:04 | 53.35834 | -2.27773 | 258 ft | 13 kts | 131° |
| 2026-05-07 14:04 | 53.35761 | -2.27666 | 256 ft | 15 kts | 150° |
| 2026-05-07 14:04 | 53.35676 | -2.27594 | 252 ft | 9 kts | 146° |
| 2026-05-07 14:04 | 53.35623 | -2.27526 | 251 ft | 7 kts | 141° |
| 2026-05-07 14:05 | 53.35588 | -2.27479 | 250 ft | 8 kts | 141° |
| 2026-05-07 14:05 | 53.35545 | -2.27421 | 252 ft | 7 kts | 141° |
| 2026-05-07 14:05 | 53.35498 | -2.27358 | 254 ft | 10 kts | 141° |
| 2026-05-07 14:05 | 53.35438 | -2.27277 | 253 ft | 13 kts | 141° |
| 2026-05-07 14:06 | 53.35368 | -2.27202 | 251 ft | 11 kts | 162° |
| 2026-05-07 14:06 | 53.35273 | -2.27208 | 245 ft | 17 kts | 191° |
| 2026-05-07 14:06 | 53.35152 | -2.27249 | 241 ft | 19 kts | 191° |
| 2026-05-07 14:06 | 53.35056 | -2.27283 | 235 ft | 11 kts | 193° |
| 2026-05-07 14:07 | 53.34999 | -2.27343 | 232 ft | 11 kts | 227° |
| 2026-05-07 14:07 | 53.34947 | -2.27447 | 235 ft | 16 kts | 231° |
| 2026-05-07 14:07 | 53.34775 | -2.27805 | 231 ft | 71 kts | 230° |
| 2026-05-07 14:07 | 53.34327 | -2.28730 | 231 ft | 132 kts | 231° |
| 2026-05-07 14:08 | 53.33667 | -2.30112 | 543 ft | 154 kts | 232° |
| 2026-05-07 14:08 | 53.33032 | -2.31524 | 1267 ft | 154 kts | 232° |
| 2026-05-07 14:08 | 53.32444 | -2.33103 | 1760 ft | 169 kts | 244° |
| 2026-05-07 14:08 | 53.32304 | -2.35145 | 2122 ft | 191 kts | 279° |
| 2026-05-07 14:09 | 53.32747 | -2.37402 | 2361 ft | 217 kts | 290° |
| 2026-05-07 14:09 | 53.33187 | -2.39930 | 2697 ft | 233 kts | 271° |
| 2026-05-07 14:09 | 53.32991 | -2.42613 | 3207 ft | 239 kts | 246° |
| 2026-05-07 14:09 | 53.32349 | -2.45232 | 3785 ft | 248 kts | 245° |
| 2026-05-07 14:10 | 53.31793 | -2.47999 | 4470 ft | 254 kts | 252° |
| 2026-05-07 14:10 | 53.31360 | -2.50870 | 5272 ft | 254 kts | 253° |
| 2026-05-07 14:10 | 53.30881 | -2.53707 | 6132 ft | 253 kts | 253° |
| 2026-05-07 14:10 | 53.30368 | -2.56528 | 6981 ft | 254 kts | 253° |
| 2026-05-07 14:11 | 53.29970 | -2.59408 | 7825 ft | 255 kts | 259° |
| 2026-05-07 14:11 | 53.29544 | -2.62291 | 8592 ft | 259 kts | 252° |
| 2026-05-07 14:11 | 53.28931 | -2.65221 | 9069 ft | 273 kts | 249° |
| 2026-05-07 14:11 | 53.28309 | -2.68255 | 9895 ft | 275 kts | 251° |
| 2026-05-07 14:12 | 53.27730 | -2.71284 | 10764 ft | 275 kts | 249° |
| 2026-05-07 14:12 | 53.27103 | -2.74391 | 11216 ft | 290 kts | 250° |
| 2026-05-07 14:12 | 53.26454 | -2.77699 | 11564 ft | 310 kts | 252° |
| 2026-05-07 14:12 | 53.26140 | -2.81370 | 11931 ft | 331 kts | 271° |
| 2026-05-07 14:13 | 53.26752 | -2.85175 | 12324 ft | 352 kts | 295° |
| 2026-05-07 14:13 | 53.28033 | -2.88751 | 12848 ft | 366 kts | 303° |
| 2026-05-07 14:13 | 53.29576 | -2.92196 | 13520 ft | 373 kts | 307° |
| 2026-05-07 14:13 | 53.31220 | -2.95597 | 14171 ft | 378 kts | 308° |
| 2026-05-07 14:14 | 53.32884 | -2.99020 | 14862 ft | 380 kts | 307° |
| 2026-05-07 14:14 | 53.34536 | -3.02490 | 15553 ft | 383 kts | 307° |
| 2026-05-07 14:14 | 53.36175 | -3.06027 | 16221 ft | 386 kts | 306° |
| 2026-05-07 14:14 | 53.37797 | -3.09613 | 16945 ft | 388 kts | 306° |
| 2026-05-07 14:15 | 53.39417 | -3.13249 | 17687 ft | 390 kts | 306° |
| 2026-05-07 14:15 | 53.41031 | -3.16918 | 18396 ft | 393 kts | 305° |
| 2026-05-07 14:15 | 53.42634 | -3.20664 | 19011 ft | 397 kts | 304° |
| 2026-05-07 14:15 | 53.44237 | -3.24463 | 19587 ft | 401 kts | 304° |
| 2026-05-07 14:16 | 53.45857 | -3.28318 | 20180 ft | 406 kts | 304° |
| 2026-05-07 14:16 | 53.47492 | -3.32205 | 20769 ft | 409 kts | 304° |
| 2026-05-07 14:16 | 53.49144 | -3.36122 | 21337 ft | 414 kts | 304° |
| 2026-05-07 14:16 | 53.50816 | -3.40079 | 21927 ft | 417 kts | 304° |
| 2026-05-07 14:17 | 53.52485 | -3.44026 | 22482 ft | 421 kts | 304° |
| 2026-05-07 14:17 | 53.54191 | -3.48063 | 23062 ft | 425 kts | 304° |
| 2026-05-07 14:17 | 53.55913 | -3.52144 | 23613 ft | 429 kts | 304° |
| 2026-05-07 14:17 | 53.57648 | -3.56262 | 24069 ft | 434 kts | 304° |
| 2026-05-07 14:18 | 53.59376 | -3.60448 | 24482 ft | 438 kts | 301° |
| 2026-05-07 14:18 | 53.60805 | -3.64973 | 24926 ft | 439 kts | 291° |
| 2026-05-07 14:18 | 53.61741 | -3.69850 | 25415 ft | 438 kts | 281° |
| 2026-05-07 14:18 | 53.62206 | -3.74929 | 25899 ft | 439 kts | 275° |
| 2026-05-07 14:19 | 53.62508 | -3.80072 | 26336 ft | 443 kts | 273° |
| 2026-05-07 14:19 | 53.62730 | -3.85274 | 26784 ft | 446 kts | 272° |
| 2026-05-07 14:19 | 53.62919 | -3.90517 | 27228 ft | 450 kts | 272° |
| 2026-05-07 14:19 | 53.63098 | -3.95794 | 27659 ft | 454 kts | 272° |
| 2026-05-07 14:20 | 53.63289 | -4.01124 | 28095 ft | 457 kts | 272° |
| 2026-05-07 14:20 | 53.63485 | -4.06492 | 28502 ft | 461 kts | 272° |
| 2026-05-07 14:20 | 53.63688 | -4.11902 | 28907 ft | 464 kts | 272° |
| 2026-05-07 14:20 | 53.63899 | -4.17344 | 29321 ft | 467 kts | 272° |
| 2026-05-07 14:21 | 53.64107 | -4.22808 | 29797 ft | 469 kts | 272° |
| 2026-05-07 14:21 | 53.64314 | -4.28315 | 30153 ft | 472 kts | 272° |
| 2026-05-07 14:21 | 53.64520 | -4.33864 | 30450 ft | 475 kts | 272° |
| 2026-05-07 14:21 | 53.64728 | -4.39434 | 30756 ft | 478 kts | 272° |
| 2026-05-07 14:22 | 53.64931 | -4.45042 | 31068 ft | 481 kts | 272° |
| 2026-05-07 14:22 | 53.65138 | -4.50684 | 31369 ft | 483 kts | 272° |
| 2026-05-07 14:22 | 53.65339 | -4.56350 | 31666 ft | 485 kts | 271° |
| 2026-05-07 14:22 | 53.65534 | -4.62039 | 31945 ft | 488 kts | 271° |
| 2026-05-07 14:23 | 53.65729 | -4.67769 | 32205 ft | 490 kts | 271° |
| 2026-05-07 14:23 | 53.65921 | -4.73494 | 32645 ft | 488 kts | 271° |
| 2026-05-07 14:23 | 53.66111 | -4.79190 | 33105 ft | 486 kts | 271° |
| 2026-05-07 14:23 | 53.66237 | -4.82965 | 33328 ft | 486 kts | 271° |
| 2026-05-07 14:24 | 53.66488 | -4.90513 | 33770 ft | 486 kts | 271° |
| 2026-05-07 14:24 | 53.66675 | -4.96199 | 34095 ft | 486 kts | 271° |
| 2026-05-07 14:24 | 53.66857 | -5.01879 | 34390 ft | 485 kts | 271° |
| 2026-05-07 14:24 | 53.67035 | -5.07550 | 34688 ft | 483 kts | 271° |
| 2026-05-07 14:25 | 53.67211 | -5.13207 | 34959 ft | 483 kts | 271° |
| 2026-05-07 14:25 | 53.67329 | -5.17025 | 35136 ft | 482 kts | 271° |
| 2026-05-07 14:25 | 53.67498 | -5.22671 | 35389 ft | 482 kts | 271° |
| 2026-05-07 14:25 | 53.67661 | -5.28298 | 35757 ft | 478 kts | 271° |
| 2026-05-07 14:26 | 53.67817 | -5.33887 | 36028 ft | 477 kts | 271° |
| 2026-05-07 14:26 | 53.67970 | -5.39483 | 36227 ft | 477 kts | 271° |
| 2026-05-07 14:26 | 53.68133 | -5.45082 | 36413 ft | 478 kts | 272° |
| 2026-05-07 14:26 | 53.68572 | -5.50651 | 36611 ft | 480 kts | 280° |
| 2026-05-07 14:27 | 53.69377 | -5.56060 | 36779 ft | 483 kts | 284° |
| 2026-05-07 14:27 | 53.70324 | -5.61582 | 36947 ft | 484 kts | 285° |
| 2026-05-07 14:27 | 53.71293 | -5.66936 | 37149 ft | 483 kts | 286° |
| 2026-05-07 14:27 | 53.72292 | -5.72350 | 37354 ft | 483 kts | 286° |
| 2026-05-07 14:28 | 53.73291 | -5.77758 | 37552 ft | 482 kts | 286° |
| 2026-05-07 14:28 | 53.74281 | -5.83159 | 37726 ft | 481 kts | 286° |
| 2026-05-07 14:28 | 53.75264 | -5.88563 | 37894 ft | 481 kts | 286° |
| 2026-05-07 14:29 | 53.77216 | -5.99424 | 37961 ft | 486 kts | 285° |
| 2026-05-07 14:29 | 53.79177 | -6.10415 | 37949 ft | 488 kts | 285° |
| 2026-05-07 14:30 | 53.81126 | -6.21404 | 37948 ft | 487 kts | 285° |
| 2026-05-07 14:30 | 53.83068 | -6.32404 | 37954 ft | 487 kts | 285° |
| 2026-05-07 14:31 | 53.84987 | -6.43369 | 37943 ft | 485 kts | 285° |
| 2026-05-07 14:31 | 53.86892 | -6.54328 | 37936 ft | 485 kts | 285° |
| 2026-05-07 14:32 | 53.88790 | -6.65301 | 37935 ft | 485 kts | 285° |
| 2026-05-07 14:32 | 53.90676 | -6.76277 | 37928 ft | 485 kts | 285° |
| 2026-05-07 14:33 | 53.92551 | -6.87267 | 37932 ft | 484 kts | 284° |
| 2026-05-07 14:33 | 53.94416 | -6.98242 | 37915 ft | 483 kts | 284° |
| 2026-05-07 14:34 | 53.96268 | -7.09215 | 37915 ft | 483 kts | 284° |
| 2026-05-07 14:34 | 53.98108 | -7.20189 | 37911 ft | 483 kts | 284° |
| 2026-05-07 14:35 | 53.99940 | -7.31190 | 37913 ft | 483 kts | 284° |
| 2026-05-07 14:35 | 54.01751 | -7.42128 | 37927 ft | 483 kts | 284° |
| 2026-05-07 14:36 | 54.03558 | -7.53106 | 37911 ft | 481 kts | 284° |
| 2026-05-07 14:36 | 54.05350 | -7.64073 | 37900 ft | 481 kts | 284° |
| 2026-05-07 14:37 | 54.07132 | -7.75052 | 37905 ft | 481 kts | 283° |
| 2026-05-07 14:37 | 54.09788 | -7.91540 | 37898 ft | 481 kts | 283° |
| 2026-05-07 14:38 | 54.11545 | -8.02533 | 37908 ft | 480 kts | 283° |
| 2026-05-07 14:38 | 54.13286 | -8.13510 | 37902 ft | 480 kts | 283° |
| 2026-05-07 14:39 | 54.15018 | -8.24501 | 37900 ft | 480 kts | 283° |
| 2026-05-07 14:39 | 54.16743 | -8.35505 | 37901 ft | 479 kts | 283° |
| 2026-05-07 14:40 | 54.18453 | -8.46492 | 37906 ft | 479 kts | 283° |
| 2026-05-07 14:40 | 54.20152 | -8.57489 | 37915 ft | 477 kts | 283° |
| 2026-05-07 14:41 | 54.21831 | -8.68428 | 37911 ft | 475 kts | 283° |
| 2026-05-07 14:41 | 54.23486 | -8.79281 | 37910 ft | 475 kts | 283° |
| 2026-05-07 14:42 | 54.25140 | -8.90201 | 37907 ft | 475 kts | 283° |
| 2026-05-07 14:42 | 54.26786 | -9.01142 | 37906 ft | 474 kts | 282° |
| 2026-05-07 14:43 | 54.28420 | -9.12079 | 37902 ft | 474 kts | 283° |
| 2026-05-07 14:43 | 54.30035 | -9.22960 | 37900 ft | 473 kts | 282° |
| 2026-05-07 14:44 | 54.31643 | -9.33874 | 37902 ft | 472 kts | 282° |
| 2026-05-07 14:44 | 54.33238 | -9.44792 | 37903 ft | 473 kts | 282° |
| 2026-05-07 14:45 | 54.34826 | -9.55719 | 37905 ft | 473 kts | 282° |
| 2026-05-07 14:45 | 54.36303 | -9.65942 | 37915 ft | 473 kts | 282° |
| 2026-05-07 14:46 | 54.37866 | -9.76819 | 37905 ft | 472 kts | 282° |
| 2026-05-07 14:46 | 54.39424 | -9.87763 | 37910 ft | 472 kts | 282° |
| 2026-05-07 14:47 | 54.40973 | -9.98720 | 37908 ft | 472 kts | 282° |
| 2026-05-07 14:47 | 54.42511 | -10.09680 | 37913 ft | 472 kts | 282° |
| 2026-05-07 14:48 | 54.43926 | -10.19827 | 37908 ft | 472 kts | 282° |
| 2026-05-07 14:48 | 54.45320 | -10.29899 | 37909 ft | 472 kts | 282° |
| 2026-05-07 14:49 | 54.46818 | -10.40801 | 37906 ft | 472 kts | 282° |
| 2026-05-07 14:49 | 54.48317 | -10.51786 | 37905 ft | 472 kts | 282° |
| 2026-05-07 14:50 | 54.49806 | -10.62775 | 37903 ft | 472 kts | 282° |
| 2026-05-07 14:50 | 54.51284 | -10.73771 | 37903 ft | 472 kts | 282° |
| 2026-05-07 14:51 | 54.52753 | -10.84773 | 37917 ft | 472 kts | 281° |
| 2026-05-07 14:51 | 54.54215 | -10.95812 | 37904 ft | 473 kts | 281° |
| 2026-05-07 14:52 | 54.55667 | -11.06863 | 37897 ft | 473 kts | 281° |
| 2026-05-07 14:52 | 54.57110 | -11.17929 | 37897 ft | 473 kts | 281° |
| 2026-05-07 14:53 | 54.58546 | -11.29003 | 37891 ft | 473 kts | 281° |
| 2026-05-07 14:53 | 54.59962 | -11.40020 | 37902 ft | 473 kts | 281° |
| 2026-05-07 14:54 | 54.61385 | -11.51175 | 37906 ft | 473 kts | 281° |
| 2026-05-07 14:54 | 54.62784 | -11.62255 | 37903 ft | 473 kts | 281° |
| 2026-05-07 14:55 | 54.64166 | -11.73285 | 37888 ft | 473 kts | 281° |
| 2026-05-07 14:55 | 54.65549 | -11.84392 | 37906 ft | 473 kts | 280° |
| 2026-05-07 14:56 | 54.66922 | -11.95510 | 37894 ft | 473 kts | 280° |
| 2026-05-07 14:56 | 54.68285 | -12.06650 | 37895 ft | 474 kts | 280° |
| 2026-05-07 14:57 | 54.69642 | -12.17824 | 37901 ft | 475 kts | 280° |
| 2026-05-07 14:57 | 54.70989 | -12.29002 | 37902 ft | 475 kts | 280° |
| 2026-05-07 14:58 | 54.72327 | -12.40194 | 37903 ft | 475 kts | 280° |
| 2026-05-07 14:58 | 54.73656 | -12.51400 | 37897 ft | 475 kts | 280° |
| 2026-05-07 14:59 | 54.74967 | -12.62589 | 37900 ft | 474 kts | 280° |
| 2026-05-07 14:59 | 54.76269 | -12.73761 | 37906 ft | 474 kts | 280° |
| 2026-05-07 15:00 | 54.77556 | -12.84890 | 37909 ft | 473 kts | 280° |
| 2026-05-07 15:00 | 54.78827 | -12.95989 | 37908 ft | 473 kts | 280° |
| 2026-05-07 15:01 | 54.80083 | -13.07068 | 37906 ft | 473 kts | 280° |
| 2026-05-07 15:01 | 54.81319 | -13.18058 | 37923 ft | 472 kts | 280° |
| 2026-05-07 15:02 | 54.82521 | -13.28829 | 37908 ft | 470 kts | 280° |
| 2026-05-07 15:02 | 54.83688 | -13.39369 | 37908 ft | 470 kts | 280° |
| 2026-05-07 15:03 | 54.84788 | -13.49398 | 37911 ft | 470 kts | 279° |
| 2026-05-07 15:03 | 54.85830 | -13.58992 | 37916 ft | 470 kts | 279° |
| 2026-05-07 15:04 | 54.87031 | -13.70100 | 37916 ft | 469 kts | 279° |
| 2026-05-07 15:04 | 54.88223 | -13.81247 | 37916 ft | 470 kts | 279° |
| 2026-05-07 15:05 | 54.89405 | -13.92408 | 37922 ft | 470 kts | 279° |
| 2026-05-07 15:05 | 54.90577 | -14.03567 | 37922 ft | 470 kts | 279° |
| 2026-05-07 15:06 | 54.91738 | -14.14746 | 37925 ft | 470 kts | 279° |
| 2026-05-07 15:06 | 54.92891 | -14.25924 | 37924 ft | 470 kts | 279° |
| 2026-05-07 15:07 | 54.94033 | -14.37113 | 37931 ft | 470 kts | 279° |
| 2026-05-07 15:07 | 54.95163 | -14.48308 | 37930 ft | 470 kts | 279° |
| 2026-05-07 15:08 | 54.96284 | -14.59506 | 37940 ft | 470 kts | 279° |
| 2026-05-07 15:08 | 54.97396 | -14.70713 | 37941 ft | 470 kts | 279° |
| 2026-05-07 15:09 | 54.98500 | -14.81920 | 37941 ft | 470 kts | 279° |
| 2026-05-07 15:09 | 54.99592 | -14.93131 | 38025 ft | 469 kts | 279° |
| 2026-05-07 15:10 | 55.00086 | -14.98740 | 38126 ft | 469 kts | 276° |
| 2026-05-07 15:10 | 55.00312 | -15.04411 | 38269 ft | 468 kts | 273° |
| 2026-05-07 15:10 | 55.00416 | -15.08158 | 38394 ft | 468 kts | 273° |
| 2026-05-07 15:10 | 55.00546 | -15.13818 | 38557 ft | 467 kts | 272° |
| 2026-05-07 15:11 | 55.00754 | -15.25145 | 38708 ft | 469 kts | 272° |
| 2026-05-07 15:11 | 55.00943 | -15.36491 | 38927 ft | 468 kts | 272° |
| 2026-05-07 15:12 | 55.01129 | -15.47826 | 39067 ft | 469 kts | 272° |
| 2026-05-07 15:12 | 55.01310 | -15.59200 | 39196 ft | 469 kts | 272° |
| 2026-05-07 15:13 | 55.01396 | -15.64875 | 39362 ft | 467 kts | 272° |
| 2026-05-07 15:13 | 55.01479 | -15.70500 | 39558 ft | 464 kts | 272° |
| 2026-05-07 15:13 | 55.01558 | -15.76099 | 39756 ft | 460 kts | 272° |
| 2026-05-07 15:13 | 55.01633 | -15.81648 | 39926 ft | 458 kts | 272° |
| 2026-05-07 15:14 | 55.01775 | -15.92743 | 39978 ft | 460 kts | 272° |
| 2026-05-07 15:14 | 55.01913 | -16.03923 | 39978 ft | 463 kts | 272° |
| 2026-05-07 15:15 | 55.02044 | -16.15156 | 39981 ft | 465 kts | 272° |
| 2026-05-07 15:15 | 55.02168 | -16.26466 | 39988 ft | 468 kts | 272° |
| 2026-05-07 15:16 | 55.02278 | -16.37829 | 39985 ft | 470 kts | 272° |
| 2026-05-07 15:16 | 55.02379 | -16.49228 | 39994 ft | 471 kts | 272° |
| 2026-05-07 15:17 | 55.02470 | -16.60553 | 39992 ft | 470 kts | 272° |
| 2026-05-07 15:17 | 55.02548 | -16.71937 | 40002 ft | 471 kts | 272° |
| 2026-05-07 15:18 | 55.02614 | -16.83425 | 40003 ft | 471 kts | 272° |
| 2026-05-07 15:18 | 55.02671 | -16.94758 | 40005 ft | 471 kts | 272° |
| 2026-05-07 15:19 | 55.02718 | -17.06179 | 40003 ft | 471 kts | 272° |
| 2026-05-07 15:19 | 55.02754 | -17.17589 | 40010 ft | 471 kts | 271° |
| 2026-05-07 15:20 | 55.02778 | -17.29007 | 40009 ft | 471 kts | 271° |
| 2026-05-07 15:20 | 55.02794 | -17.40433 | 40016 ft | 471 kts | 271° |
| 2026-05-07 15:21 | 55.02797 | -17.51854 | 40016 ft | 471 kts | 271° |
| 2026-05-07 15:21 | 55.02787 | -17.63269 | 40027 ft | 471 kts | 271° |
| 2026-05-07 15:22 | 55.02771 | -17.74678 | 40025 ft | 470 kts | 271° |
| 2026-05-07 15:22 | 55.02743 | -17.86073 | 40030 ft | 471 kts | 271° |
| 2026-05-07 15:23 | 55.02704 | -17.97483 | 40027 ft | 470 kts | 271° |
| 2026-05-07 15:23 | 55.02653 | -18.08888 | 40039 ft | 471 kts | 271° |
| 2026-05-07 15:24 | 55.02594 | -18.20302 | 40034 ft | 471 kts | 271° |
| 2026-05-07 15:24 | 55.02523 | -18.31710 | 40040 ft | 471 kts | 271° |
| 2026-05-07 15:25 | 55.02438 | -18.43058 | 40039 ft | 471 kts | 271° |
| 2026-05-07 15:25 | 55.02346 | -18.54481 | 40048 ft | 471 kts | 271° |
| 2026-05-07 15:26 | 55.02244 | -18.65908 | 40048 ft | 471 kts | 271° |
| 2026-05-07 15:26 | 55.02130 | -18.77339 | 40053 ft | 471 kts | 271° |
| 2026-05-07 15:27 | 55.02007 | -18.88758 | 40053 ft | 471 kts | 270° |
| 2026-05-07 15:27 | 55.01872 | -19.00185 | 40059 ft | 472 kts | 271° |
| 2026-05-07 15:28 | 55.01726 | -19.11639 | 40061 ft | 472 kts | 270° |
| 2026-05-07 15:28 | 55.01570 | -19.23064 | 40064 ft | 472 kts | 270° |
| 2026-05-07 15:29 | 55.01401 | -19.34496 | 40067 ft | 472 kts | 270° |
| 2026-05-07 15:29 | 55.01224 | -19.45863 | 40084 ft | 472 kts | 270° |
| 2026-05-07 15:30 | 55.01034 | -19.57297 | 40075 ft | 472 kts | 270° |
| 2026-05-07 15:30 | 55.00835 | -19.68734 | 40081 ft | 473 kts | 270° |
| 2026-05-07 15:31 | 55.00624 | -19.80178 | 40080 ft | 473 kts | 270° |
| 2026-05-07 15:31 | 55.00402 | -19.91626 | 40086 ft | 473 kts | 270° |
| 2026-05-07 15:32 | 55.00175 | -20.03066 | 40087 ft | 473 kts | 270° |
| 2026-05-07 15:32 | 55.00050 | -20.14510 | 40094 ft | 472 kts | 271° |
| 2026-05-07 15:33 | 54.99966 | -20.25952 | 40091 ft | 472 kts | 271° |
| 2026-05-07 15:33 | 54.99856 | -20.37406 | 40097 ft | 473 kts | 271° |
| 2026-05-07 15:34 | 54.99721 | -20.48856 | 40100 ft | 473 kts | 271° |
| 2026-05-07 15:34 | 54.99572 | -20.60311 | 40102 ft | 473 kts | 271° |
| 2026-05-07 15:35 | 54.99412 | -20.71678 | 40105 ft | 473 kts | 271° |
| 2026-05-07 15:35 | 54.99240 | -20.83132 | 40105 ft | 473 kts | 271° |
| 2026-05-07 15:36 | 54.99059 | -20.94587 | 40108 ft | 473 kts | 271° |
| 2026-05-07 15:36 | 54.98867 | -21.06043 | 40113 ft | 473 kts | 271° |
| 2026-05-07 15:37 | 54.98664 | -21.17505 | 40124 ft | 473 kts | 271° |
| 2026-05-07 15:37 | 54.98450 | -21.28964 | 40121 ft | 474 kts | 271° |
| 2026-05-07 15:38 | 54.98226 | -21.40432 | 40122 ft | 474 kts | 271° |
| 2026-05-07 15:38 | 54.97992 | -21.51830 | 40124 ft | 474 kts | 271° |
| 2026-05-07 15:39 | 54.97747 | -21.63291 | 40126 ft | 474 kts | 271° |
| 2026-05-07 15:39 | 54.97488 | -21.74754 | 40130 ft | 474 kts | 271° |
| 2026-05-07 15:40 | 54.97221 | -21.86211 | 40133 ft | 474 kts | 271° |
| 2026-05-07 15:40 | 54.96945 | -21.97674 | 40137 ft | 474 kts | 271° |
| 2026-05-07 15:41 | 54.96654 | -22.09144 | 40135 ft | 474 kts | 271° |
| 2026-05-07 15:41 | 54.96353 | -22.20604 | 40140 ft | 474 kts | 271° |
| 2026-05-07 15:42 | 54.96042 | -22.32072 | 40143 ft | 474 kts | 270° |
| 2026-05-07 15:42 | 54.95720 | -22.43473 | 40146 ft | 475 kts | 271° |
| 2026-05-07 15:43 | 54.95387 | -22.54950 | 40151 ft | 475 kts | 271° |
| 2026-05-07 15:43 | 54.95043 | -22.66438 | 40151 ft | 475 kts | 270° |
| 2026-05-07 15:44 | 54.94689 | -22.77917 | 40146 ft | 475 kts | 270° |
| 2026-05-07 15:44 | 54.94322 | -22.89398 | 40157 ft | 475 kts | 270° |
| 2026-05-07 15:45 | 54.93946 | -23.00878 | 40155 ft | 476 kts | 270° |
| 2026-05-07 15:45 | 54.93559 | -23.12360 | 40160 ft | 476 kts | 270° |
| 2026-05-07 15:46 | 54.92957 | -23.29596 | 40169 ft | 476 kts | 270° |
| 2026-05-07 15:47 | 54.92544 | -23.41067 | 40166 ft | 476 kts | 270° |
| 2026-05-07 15:47 | 54.92118 | -23.52553 | 40155 ft | 476 kts | 270° |
| 2026-05-07 15:48 | 54.91681 | -23.64039 | 40165 ft | 476 kts | 270° |
| 2026-05-07 15:48 | 54.91236 | -23.75455 | 40172 ft | 477 kts | 270° |
| 2026-05-07 15:49 | 54.90778 | -23.86941 | 40178 ft | 477 kts | 270° |
| 2026-05-07 15:49 | 54.90307 | -23.98441 | 40182 ft | 477 kts | 270° |
| 2026-05-07 15:50 | 54.89827 | -24.09934 | 40170 ft | 476 kts | 270° |
| 2026-05-07 15:50 | 54.89334 | -24.21429 | 40183 ft | 477 kts | 270° |
| 2026-05-07 15:51 | 54.88833 | -24.32918 | 40185 ft | 477 kts | 270° |
| 2026-05-07 15:51 | 54.88318 | -24.44414 | 40187 ft | 477 kts | 270° |
| 2026-05-07 15:52 | 54.87793 | -24.55890 | 40201 ft | 477 kts | 270° |
| 2026-05-07 15:52 | 54.87258 | -24.67378 | 40187 ft | 477 kts | 270° |
| 2026-05-07 15:53 | 54.86713 | -24.78839 | 40197 ft | 477 kts | 270° |
| 2026-05-07 15:53 | 54.86160 | -24.90252 | 40203 ft | 477 kts | 270° |
| 2026-05-07 15:54 | 54.85593 | -25.01711 | 40204 ft | 477 kts | 270° |
| 2026-05-07 15:54 | 54.85015 | -25.13172 | 40205 ft | 477 kts | 270° |
| 2026-05-07 15:55 | 54.84426 | -25.24648 | 40195 ft | 477 kts | 270° |
| 2026-05-07 15:55 | 54.83826 | -25.36067 | 40211 ft | 477 kts | 270° |
| 2026-05-07 15:56 | 54.83217 | -25.47499 | 40211 ft | 477 kts | 270° |
| 2026-05-07 15:56 | 54.82599 | -25.58892 | 40217 ft | 478 kts | 270° |
| 2026-05-07 15:57 | 54.81971 | -25.70280 | 40216 ft | 478 kts | 269° |
| 2026-05-07 15:57 | 54.81342 | -25.81491 | 40205 ft | 477 kts | 269° |
| 2026-05-07 15:58 | 54.80741 | -25.92029 | 40223 ft | 478 kts | 269° |
| 2026-05-07 15:58 | 54.80105 | -26.02999 | 40225 ft | 478 kts | 269° |
| 2026-05-07 15:59 | 54.79432 | -26.14384 | 40225 ft | 478 kts | 269° |
| 2026-05-07 15:59 | 54.78744 | -26.25834 | 40231 ft | 478 kts | 269° |
| 2026-05-07 16:00 | 54.78049 | -26.37277 | 40212 ft | 477 kts | 269° |
| 2026-05-07 16:00 | 54.77345 | -26.48719 | 40236 ft | 478 kts | 269° |
| 2026-05-07 16:01 | 54.76626 | -26.60168 | 40236 ft | 478 kts | 269° |
| 2026-05-07 16:01 | 54.76020 | -26.69687 | 40241 ft | 478 kts | 269° |
| 2026-05-07 16:02 | 54.75284 | -26.81121 | 40242 ft | 478 kts | 269° |
| 2026-05-07 16:02 | 54.74532 | -26.92566 | 40218 ft | 478 kts | 269° |
| 2026-05-07 16:03 | 54.73772 | -27.04017 | 40240 ft | 479 kts | 269° |
| 2026-05-07 16:03 | 54.73000 | -27.15461 | 40248 ft | 479 kts | 269° |
| 2026-05-07 16:04 | 54.72218 | -27.26909 | 40254 ft | 479 kts | 269° |
| 2026-05-07 16:04 | 54.71425 | -27.38348 | 40256 ft | 479 kts | 269° |
| 2026-05-07 16:05 | 54.70620 | -27.49785 | 40232 ft | 479 kts | 269° |
| 2026-05-07 16:05 | 54.69811 | -27.61135 | 40259 ft | 479 kts | 269° |
| 2026-05-07 16:06 | 54.68987 | -27.72563 | 40263 ft | 479 kts | 269° |
| 2026-05-07 16:06 | 54.68150 | -27.83982 | 40266 ft | 479 kts | 269° |
| 2026-05-07 16:07 | 54.67305 | -27.95395 | 40265 ft | 479 kts | 269° |
| 2026-05-07 16:07 | 54.66447 | -28.06821 | 40246 ft | 479 kts | 269° |
| 2026-05-07 16:08 | 54.65577 | -28.18228 | 40271 ft | 479 kts | 269° |
| 2026-05-07 16:08 | 54.64699 | -28.29619 | 40271 ft | 479 kts | 268° |
| 2026-05-07 16:09 | 54.63809 | -28.41024 | 40274 ft | 479 kts | 268° |
| 2026-05-07 16:09 | 54.62908 | -28.52412 | 40276 ft | 479 kts | 268° |
| 2026-05-07 16:10 | 54.62003 | -28.63728 | 40278 ft | 479 kts | 268° |
| 2026-05-07 16:10 | 54.61080 | -28.75115 | 40282 ft | 479 kts | 268° |
| 2026-05-07 16:11 | 54.60147 | -28.86493 | 40279 ft | 479 kts | 268° |
| 2026-05-07 16:11 | 54.59204 | -28.97859 | 40281 ft | 479 kts | 268° |
| 2026-05-07 16:12 | 54.58250 | -29.09238 | 40279 ft | 479 kts | 268° |
| 2026-05-07 16:12 | 54.57286 | -29.20600 | 40280 ft | 479 kts | 268° |
| 2026-05-07 16:13 | 54.56311 | -29.31956 | 40290 ft | 479 kts | 268° |
| 2026-05-07 16:13 | 54.55328 | -29.43301 | 40289 ft | 479 kts | 268° |
| 2026-05-07 16:14 | 54.54333 | -29.54648 | 40290 ft | 479 kts | 268° |
| 2026-05-07 16:14 | 54.53321 | -29.65984 | 40291 ft | 478 kts | 268° |
| 2026-05-07 16:15 | 54.52306 | -29.77306 | 40290 ft | 479 kts | 268° |
| 2026-05-07 16:15 | 54.51275 | -29.88606 | 40298 ft | 478 kts | 268° |
| 2026-05-07 16:16 | 54.50244 | -29.99898 | 40300 ft | 477 kts | 268° |
| 2026-05-07 16:16 | 54.49125 | -30.11185 | 40308 ft | 479 kts | 266° |
| 2026-05-07 16:17 | 54.47907 | -30.22433 | 40304 ft | 479 kts | 266° |
| 2026-05-07 16:17 | 54.46693 | -30.33599 | 40301 ft | 477 kts | 266° |
| 2026-05-07 16:18 | 54.45483 | -30.44758 | 40309 ft | 474 kts | 266° |
| 2026-05-07 16:18 | 54.44275 | -30.55897 | 40311 ft | 474 kts | 266° |
| 2026-05-07 16:19 | 54.43056 | -30.67031 | 40309 ft | 474 kts | 266° |
| 2026-05-07 16:19 | 54.41826 | -30.78183 | 40310 ft | 475 kts | 266° |
| 2026-05-07 16:20 | 54.40589 | -30.89293 | 40310 ft | 472 kts | 266° |
| 2026-05-07 16:20 | 54.39347 | -31.00318 | 40314 ft | 469 kts | 266° |
| 2026-05-07 16:21 | 54.38103 | -31.11297 | 40314 ft | 469 kts | 266° |
| 2026-05-07 16:21 | 54.36848 | -31.22265 | 40316 ft | 468 kts | 266° |
| 2026-05-07 16:22 | 54.35584 | -31.33209 | 40312 ft | 468 kts | 266° |
| 2026-05-07 16:22 | 54.34312 | -31.44154 | 40317 ft | 468 kts | 266° |
| 2026-05-07 16:23 | 54.33029 | -31.55084 | 40317 ft | 468 kts | 266° |
| 2026-05-07 16:23 | 54.31738 | -31.66025 | 40317 ft | 469 kts | 266° |
| 2026-05-07 16:24 | 54.30439 | -31.76902 | 40317 ft | 469 kts | 266° |
| 2026-05-07 16:24 | 54.29117 | -31.87916 | 40322 ft | 469 kts | 266° |
| 2026-05-07 16:25 | 54.27794 | -31.98768 | 40324 ft | 470 kts | 265° |
| 2026-05-07 16:25 | 54.26454 | -32.09743 | 40324 ft | 472 kts | 265° |
| 2026-05-07 16:26 | 54.25100 | -32.20724 | 40325 ft | 472 kts | 265° |
| 2026-05-07 16:26 | 54.23732 | -32.31723 | 40324 ft | 472 kts | 265° |
| 2026-05-07 16:27 | 54.22358 | -32.42688 | 40326 ft | 472 kts | 265° |
| 2026-05-07 16:27 | 54.20971 | -32.53647 | 40330 ft | 473 kts | 265° |
| 2026-05-07 16:28 | 54.19577 | -32.64633 | 40331 ft | 473 kts | 265° |
| 2026-05-07 16:28 | 54.18172 | -32.75622 | 40330 ft | 473 kts | 265° |
| 2026-05-07 16:29 | 54.16756 | -32.86590 | 40330 ft | 474 kts | 265° |
| 2026-05-07 16:29 | 54.15331 | -32.97501 | 40333 ft | 474 kts | 265° |
| 2026-05-07 16:30 | 54.13896 | -33.08438 | 40330 ft | 471 kts | 265° |
| 2026-05-07 16:30 | 54.12457 | -33.19317 | 40330 ft | 470 kts | 265° |
| 2026-05-07 16:31 | 54.11015 | -33.30170 | 40331 ft | 470 kts | 265° |
| 2026-05-07 16:31 | 54.09561 | -33.41022 | 40327 ft | 470 kts | 265° |
| 2026-05-07 16:32 | 54.08096 | -33.51863 | 40328 ft | 470 kts | 265° |
| 2026-05-07 16:32 | 54.06625 | -33.62660 | 40329 ft | 466 kts | 265° |
| 2026-05-07 16:33 | 54.05155 | -33.73374 | 40330 ft | 464 kts | 265° |
| 2026-05-07 16:33 | 54.03675 | -33.84054 | 40330 ft | 464 kts | 265° |
| 2026-05-07 16:34 | 54.02191 | -33.94743 | 40323 ft | 464 kts | 265° |
| 2026-05-07 16:34 | 54.00697 | -34.05427 | 40331 ft | 464 kts | 265° |
| 2026-05-07 16:35 | 53.99189 | -34.16093 | 40333 ft | 464 kts | 265° |
| 2026-05-07 16:35 | 53.97674 | -34.26744 | 40319 ft | 463 kts | 265° |
| 2026-05-07 16:36 | 53.96154 | -34.37389 | 40337 ft | 464 kts | 265° |
| 2026-05-07 16:36 | 53.94624 | -34.48034 | 40318 ft | 464 kts | 265° |
| 2026-05-07 16:37 | 53.93084 | -34.58653 | 40297 ft | 462 kts | 265° |
| 2026-05-07 16:37 | 53.91551 | -34.69139 | 40331 ft | 459 kts | 265° |
| 2026-05-07 16:38 | 53.90005 | -34.79645 | 40333 ft | 459 kts | 265° |
| 2026-05-07 16:38 | 53.88453 | -34.90134 | 40333 ft | 459 kts | 265° |
| 2026-05-07 16:39 | 53.86894 | -35.00623 | 40333 ft | 459 kts | 265° |
| 2026-05-07 16:39 | 53.85322 | -35.11097 | 40298 ft | 458 kts | 265° |
| 2026-05-07 16:40 | 53.83743 | -35.21539 | 40335 ft | 457 kts | 265° |
| 2026-05-07 16:40 | 53.82163 | -35.31939 | 40337 ft | 457 kts | 264° |
| 2026-05-07 16:41 | 53.80574 | -35.42339 | 40330 ft | 456 kts | 264° |
| 2026-05-07 16:41 | 53.78975 | -35.52724 | 40331 ft | 456 kts | 264° |
| 2026-05-07 16:42 | 53.77377 | -35.63043 | 40307 ft | 456 kts | 264° |
| 2026-05-07 16:42 | 53.75762 | -35.73412 | 40332 ft | 456 kts | 264° |
| 2026-05-07 16:43 | 53.74138 | -35.83763 | 40331 ft | 456 kts | 264° |
| 2026-05-07 16:43 | 53.72506 | -35.94108 | 40333 ft | 456 kts | 264° |
| 2026-05-07 16:44 | 53.70862 | -36.04457 | 40334 ft | 456 kts | 264° |
| 2026-05-07 16:44 | 53.69212 | -36.14793 | 40298 ft | 456 kts | 263° |
| 2026-05-07 16:45 | 53.67555 | -36.25094 | 40331 ft | 453 kts | 263° |
| 2026-05-07 16:45 | 53.65897 | -36.35336 | 40333 ft | 453 kts | 263° |
| 2026-05-07 16:46 | 53.64233 | -36.45573 | 40331 ft | 453 kts | 263° |
| 2026-05-07 16:46 | 53.62569 | -36.55737 | 40330 ft | 452 kts | 263° |
| 2026-05-07 16:47 | 53.60887 | -36.65952 | 40289 ft | 453 kts | 263° |
| 2026-05-07 16:47 | 53.59197 | -36.76156 | 40330 ft | 452 kts | 263° |
| 2026-05-07 16:48 | 53.57497 | -36.86362 | 40330 ft | 452 kts | 263° |
| 2026-05-07 16:48 | 53.55787 | -36.96558 | 40330 ft | 453 kts | 262° |
| 2026-05-07 16:49 | 53.54068 | -37.06751 | 40328 ft | 453 kts | 262° |
| 2026-05-07 16:49 | 53.52342 | -37.16929 | 40302 ft | 453 kts | 262° |
| 2026-05-07 16:50 | 53.50619 | -37.27032 | 40328 ft | 453 kts | 262° |
| 2026-05-07 16:50 | 53.48874 | -37.37208 | 40327 ft | 453 kts | 262° |
| 2026-05-07 16:51 | 53.47119 | -37.47380 | 40329 ft | 454 kts | 262° |
| 2026-05-07 16:51 | 53.45353 | -37.57562 | 40325 ft | 454 kts | 262° |
| 2026-05-07 16:52 | 53.43880 | -37.66003 | 40327 ft | 454 kts | 262° |
| 2026-05-07 16:52 | 53.42099 | -37.76151 | 40318 ft | 454 kts | 261° |
| 2026-05-07 16:53 | 53.40310 | -37.86294 | 40309 ft | 453 kts | 261° |
| 2026-05-07 16:53 | 53.38516 | -37.96409 | 40322 ft | 453 kts | 261° |
| 2026-05-07 16:54 | 53.36716 | -38.06501 | 40320 ft | 452 kts | 261° |
| 2026-05-07 16:54 | 53.34907 | -38.16590 | 40317 ft | 453 kts | 261° |
| 2026-05-07 16:55 | 53.33086 | -38.26682 | 40323 ft | 453 kts | 260° |
| 2026-05-07 16:55 | 53.31257 | -38.36766 | 40317 ft | 453 kts | 260° |
| 2026-05-07 16:56 | 53.29419 | -38.46846 | 40316 ft | 454 kts | 260° |
| 2026-05-07 16:56 | 53.26656 | -38.61889 | 40315 ft | 453 kts | 260° |
| 2026-05-07 16:57 | 53.24795 | -38.71945 | 40290 ft | 453 kts | 259° |
| 2026-05-07 16:57 | 53.22928 | -38.81998 | 40309 ft | 454 kts | 259° |
| 2026-05-07 16:58 | 53.21049 | -38.92054 | 40310 ft | 454 kts | 259° |
| 2026-05-07 16:58 | 53.19161 | -39.02112 | 40308 ft | 454 kts | 259° |
| 2026-05-07 16:59 | 53.17265 | -39.12155 | 40305 ft | 454 kts | 259° |
| 2026-05-07 16:59 | 53.15361 | -39.22182 | 40306 ft | 454 kts | 259° |
| 2026-05-07 17:00 | 53.13450 | -39.32197 | 40304 ft | 454 kts | 259° |
| 2026-05-07 17:00 | 53.11530 | -39.42200 | 40308 ft | 452 kts | 259° |
| 2026-05-07 17:01 | 53.09623 | -39.52081 | 40301 ft | 451 kts | 259° |
| 2026-05-07 17:01 | 53.07697 | -39.62011 | 40307 ft | 451 kts | 259° |
| 2026-05-07 17:02 | 53.05801 | -39.71742 | 40301 ft | 451 kts | 258° |
| 2026-05-07 17:02 | 53.03860 | -39.81650 | 40302 ft | 451 kts | 258° |
| 2026-05-07 17:03 | 53.01909 | -39.91565 | 40294 ft | 451 kts | 258° |
| 2026-05-07 17:03 | 52.99961 | -40.01418 | 40297 ft | 451 kts | 258° |
| 2026-05-07 17:04 | 52.98335 | -40.11331 | 40298 ft | 447 kts | 263° |
| 2026-05-07 17:04 | 52.96929 | -40.21357 | 40286 ft | 447 kts | 263° |
| 2026-05-07 17:05 | 52.95469 | -40.31392 | 40289 ft | 450 kts | 262° |
| 2026-05-07 17:05 | 52.93944 | -40.41427 | 40291 ft | 450 kts | 262° |
| 2026-05-07 17:06 | 52.92387 | -40.51470 | 40287 ft | 450 kts | 261° |
| 2026-05-07 17:06 | 52.90843 | -40.61372 | 40287 ft | 450 kts | 261° |
| 2026-05-07 17:07 | 52.89312 | -40.71172 | 40256 ft | 450 kts | 261° |
| 2026-05-07 17:07 | 52.87781 | -40.80893 | 40278 ft | 450 kts | 261° |
| 2026-05-07 17:08 | 52.86285 | -40.90346 | 40276 ft | 450 kts | 261° |
| 2026-05-07 17:08 | 52.84693 | -41.00352 | 40280 ft | 450 kts | 261° |
| 2026-05-07 17:09 | 52.83096 | -41.10316 | 40277 ft | 450 kts | 260° |
| 2026-05-07 17:09 | 52.81486 | -41.20310 | 40274 ft | 450 kts | 260° |
| 2026-05-07 17:10 | 52.79862 | -41.30321 | 40273 ft | 452 kts | 260° |
| 2026-05-07 17:10 | 52.78233 | -41.40324 | 40268 ft | 453 kts | 260° |
| 2026-05-07 17:11 | 52.76648 | -41.49998 | 40267 ft | 453 kts | 260° |
| 2026-05-07 17:11 | 52.75107 | -41.59357 | 40266 ft | 453 kts | 259° |
| 2026-05-07 17:12 | 52.73478 | -41.69180 | 40263 ft | 453 kts | 259° |
| 2026-05-07 17:12 | 52.71862 | -41.78857 | 40260 ft | 453 kts | 259° |
| 2026-05-07 17:13 | 52.70245 | -41.88510 | 40264 ft | 454 kts | 259° |
| 2026-05-07 17:13 | 52.68658 | -41.97917 | 40264 ft | 454 kts | 259° |
| 2026-05-07 17:14 | 52.67151 | -42.06805 | 40260 ft | 453 kts | 258° |
| 2026-05-07 17:14 | 52.65697 | -42.15343 | 40262 ft | 452 kts | 258° |
| 2026-05-07 17:15 | 52.64139 | -42.24440 | 40258 ft | 452 kts | 258° |
| 2026-05-07 17:15 | 52.62437 | -42.34325 | 40256 ft | 452 kts | 258° |
| 2026-05-07 17:16 | 52.60713 | -42.44264 | 40257 ft | 452 kts | 258° |
| 2026-05-07 17:16 | 52.58983 | -42.54201 | 40257 ft | 452 kts | 258° |
| 2026-05-07 17:17 | 52.57247 | -42.64139 | 40254 ft | 452 kts | 258° |
| 2026-05-07 17:17 | 52.55498 | -42.74067 | 40255 ft | 452 kts | 258° |
| 2026-05-07 17:18 | 52.53755 | -42.83915 | 40247 ft | 452 kts | 257° |
| 2026-05-07 17:18 | 52.51992 | -42.93818 | 40249 ft | 452 kts | 257° |
| 2026-05-07 17:19 | 52.50220 | -43.03723 | 40248 ft | 452 kts | 257° |
| 2026-05-07 17:19 | 52.48441 | -43.13597 | 40246 ft | 451 kts | 257° |
| 2026-05-07 17:20 | 52.46654 | -43.23474 | 40249 ft | 450 kts | 257° |
| 2026-05-07 17:20 | 52.44868 | -43.33296 | 40237 ft | 449 kts | 257° |
| 2026-05-07 17:21 | 52.43075 | -43.43095 | 40244 ft | 449 kts | 256° |
| 2026-05-07 17:21 | 52.41275 | -43.52889 | 40247 ft | 449 kts | 256° |
| 2026-05-07 17:22 | 52.39466 | -43.62679 | 40242 ft | 449 kts | 256° |
| 2026-05-07 17:22 | 52.37647 | -43.72465 | 40235 ft | 449 kts | 256° |
| 2026-05-07 17:23 | 52.35823 | -43.82234 | 40230 ft | 449 kts | 256° |
| 2026-05-07 17:23 | 52.33990 | -43.92002 | 40234 ft | 450 kts | 256° |
| 2026-05-07 17:24 | 52.32158 | -44.01711 | 40247 ft | 449 kts | 256° |
| 2026-05-07 17:24 | 52.30305 | -44.11469 | 40235 ft | 449 kts | 256° |
| 2026-05-07 17:25 | 52.28445 | -44.21216 | 40234 ft | 450 kts | 256° |
| 2026-05-07 17:25 | 52.26577 | -44.30954 | 40228 ft | 450 kts | 256° |
| 2026-05-07 17:26 | 52.24710 | -44.40678 | 40235 ft | 449 kts | 255° |
| 2026-05-07 17:26 | 52.22830 | -44.50374 | 40234 ft | 447 kts | 255° |
| 2026-05-07 17:27 | 52.20944 | -44.60032 | 40224 ft | 447 kts | 255° |
| 2026-05-07 17:27 | 52.19056 | -44.69681 | 40228 ft | 447 kts | 255° |
| 2026-05-07 17:28 | 52.17220 | -44.79030 | 40229 ft | 447 kts | 255° |
| 2026-05-07 17:28 | 52.15382 | -44.88328 | 40213 ft | 448 kts | 255° |
| 2026-05-07 17:29 | 52.13465 | -44.97983 | 40234 ft | 448 kts | 255° |
| 2026-05-07 17:29 | 52.11555 | -45.07561 | 40219 ft | 448 kts | 255° |
| 2026-05-07 17:30 | 52.09623 | -45.17193 | 40216 ft | 448 kts | 255° |
| 2026-05-07 17:30 | 52.07687 | -45.26813 | 40220 ft | 448 kts | 255° |
| 2026-05-07 17:31 | 52.05740 | -45.36437 | 40219 ft | 448 kts | 254° |
| 2026-05-07 17:31 | 52.03785 | -45.46047 | 40219 ft | 448 kts | 254° |
| 2026-05-07 17:32 | 52.01823 | -45.55640 | 40219 ft | 447 kts | 254° |
| 2026-05-07 17:32 | 52.00189 | -45.63598 | 40206 ft | 446 kts | 254° |
| 2026-05-07 17:33 | 51.97892 | -45.74733 | 40204 ft | 445 kts | 253° |
| 2026-05-07 17:33 | 51.95919 | -45.84250 | 40218 ft | 445 kts | 253° |
| 2026-05-07 17:34 | 51.93949 | -45.93696 | 40218 ft | 445 kts | 253° |
| 2026-05-07 17:34 | 51.91957 | -46.03201 | 40215 ft | 445 kts | 253° |
| 2026-05-07 17:35 | 51.89963 | -46.12685 | 40214 ft | 445 kts | 253° |
| 2026-05-07 17:35 | 51.87963 | -46.22158 | 40214 ft | 445 kts | 253° |
| 2026-05-07 17:36 | 51.85955 | -46.31611 | 40212 ft | 445 kts | 253° |
| 2026-05-07 17:36 | 51.83940 | -46.41061 | 40215 ft | 444 kts | 253° |
| 2026-05-07 17:37 | 51.81914 | -46.50503 | 40207 ft | 445 kts | 252° |
| 2026-05-07 17:37 | 51.79880 | -46.59944 | 40208 ft | 445 kts | 252° |
| 2026-05-07 17:38 | 51.77840 | -46.69382 | 40209 ft | 445 kts | 252° |
| 2026-05-07 17:38 | 51.75795 | -46.78799 | 40208 ft | 444 kts | 252° |
| 2026-05-07 17:39 | 51.73756 | -46.88136 | 40209 ft | 444 kts | 252° |
| 2026-05-07 17:39 | 51.71697 | -46.97515 | 40209 ft | 444 kts | 252° |
| 2026-05-07 17:40 | 51.69646 | -47.06825 | 40206 ft | 444 kts | 252° |
| 2026-05-07 17:40 | 51.67569 | -47.16205 | 40206 ft | 444 kts | 252° |
| 2026-05-07 17:41 | 51.65490 | -47.25557 | 40205 ft | 443 kts | 251° |
| 2026-05-07 17:41 | 51.63406 | -47.34898 | 40208 ft | 443 kts | 251° |
| 2026-05-07 17:42 | 51.61312 | -47.44229 | 40207 ft | 443 kts | 251° |
| 2026-05-07 17:42 | 51.59212 | -47.53547 | 40206 ft | 443 kts | 251° |
| 2026-05-07 17:43 | 51.57459 | -47.61292 | 40205 ft | 443 kts | 251° |
| 2026-05-07 17:43 | 51.55343 | -47.70606 | 40205 ft | 443 kts | 251° |
| 2026-05-07 17:44 | 51.53226 | -47.79898 | 40205 ft | 442 kts | 251° |
| 2026-05-07 17:44 | 51.51104 | -47.89162 | 40206 ft | 441 kts | 251° |
| 2026-05-07 17:45 | 51.48983 | -47.98375 | 40201 ft | 439 kts | 250° |
| 2026-05-07 17:45 | 51.46859 | -48.07553 | 40197 ft | 439 kts | 250° |
| 2026-05-07 17:46 | 51.44729 | -48.16733 | 40198 ft | 439 kts | 250° |
| 2026-05-07 17:46 | 51.42596 | -48.25894 | 40198 ft | 438 kts | 250° |
| 2026-05-07 17:47 | 51.40457 | -48.35033 | 40195 ft | 438 kts | 250° |
| 2026-05-07 17:47 | 51.38306 | -48.44177 | 40195 ft | 438 kts | 250° |
| 2026-05-07 17:48 | 51.36153 | -48.53292 | 40191 ft | 438 kts | 250° |
| 2026-05-07 17:48 | 51.33988 | -48.62417 | 40181 ft | 438 kts | 250° |
| 2026-05-07 17:49 | 51.31825 | -48.71515 | 40187 ft | 438 kts | 250° |
| 2026-05-07 17:49 | 51.29654 | -48.80594 | 40184 ft | 437 kts | 249° |
| 2026-05-07 17:50 | 51.27475 | -48.89663 | 40185 ft | 437 kts | 249° |
| 2026-05-07 17:50 | 51.25290 | -48.98723 | 40214 ft | 437 kts | 249° |
| 2026-05-07 17:51 | 51.23120 | -49.07688 | 40187 ft | 434 kts | 249° |
| 2026-05-07 17:51 | 51.20943 | -49.16639 | 40176 ft | 433 kts | 249° |
| 2026-05-07 17:52 | 51.18761 | -49.25577 | 40175 ft | 432 kts | 249° |
| 2026-05-07 17:52 | 51.16573 | -49.34513 | 40173 ft | 432 kts | 249° |
| 2026-05-07 17:53 | 51.14378 | -49.43423 | 40168 ft | 433 kts | 249° |
| 2026-05-07 17:53 | 51.12173 | -49.52345 | 40171 ft | 432 kts | 249° |
| 2026-05-07 17:54 | 51.09964 | -49.61252 | 40171 ft | 433 kts | 248° |
| 2026-05-07 17:54 | 51.07743 | -49.70167 | 40161 ft | 433 kts | 248° |
| 2026-05-07 17:55 | 51.05530 | -49.79016 | 40161 ft | 433 kts | 248° |
| 2026-05-07 17:55 | 51.03285 | -49.87967 | 40157 ft | 433 kts | 248° |
| 2026-05-07 17:56 | 51.01061 | -49.96787 | 40154 ft | 433 kts | 248° |
| 2026-05-07 17:56 | 50.98839 | -50.05678 | 40168 ft | 434 kts | 249° |
| 2026-05-07 17:57 | 50.97046 | -50.13182 | 40151 ft | 432 kts | 249° |
| 2026-05-07 17:57 | 50.94586 | -50.23525 | 40150 ft | 430 kts | 249° |
| 2026-05-07 17:58 | 50.92452 | -50.32391 | 40147 ft | 430 kts | 248° |
| 2026-05-07 17:58 | 50.90305 | -50.41237 | 40147 ft | 430 kts | 248° |
| 2026-05-07 17:59 | 50.88147 | -50.50081 | 40135 ft | 430 kts | 248° |
| 2026-05-07 17:59 | 50.85984 | -50.58911 | 40138 ft | 431 kts | 248° |
| 2026-05-07 18:00 | 50.83813 | -50.67742 | 40136 ft | 430 kts | 248° |
| 2026-05-07 18:00 | 50.81636 | -50.76564 | 40138 ft | 430 kts | 248° |
| 2026-05-07 18:01 | 50.79453 | -50.85371 | 40133 ft | 430 kts | 248° |
| 2026-05-07 18:01 | 50.77280 | -50.94112 | 40124 ft | 430 kts | 248° |
| 2026-05-07 18:02 | 50.73983 | -51.07299 | 40119 ft | 430 kts | 247° |
| 2026-05-07 18:03 | 50.71777 | -51.16078 | 40126 ft | 430 kts | 246° |
| 2026-05-07 18:03 | 50.69563 | -51.24851 | 40118 ft | 431 kts | 246° |
| 2026-05-07 18:04 | 50.67341 | -51.33626 | 40108 ft | 430 kts | 246° |
| 2026-05-07 18:04 | 50.65111 | -51.42401 | 40106 ft | 432 kts | 246° |
| 2026-05-07 18:05 | 50.62869 | -51.51180 | 40107 ft | 432 kts | 246° |
| 2026-05-07 18:05 | 50.60618 | -51.59963 | 40103 ft | 433 kts | 246° |
| 2026-05-07 18:06 | 50.58357 | -51.68738 | 40103 ft | 432 kts | 246° |
| 2026-05-07 18:06 | 50.56094 | -51.77501 | 40093 ft | 432 kts | 246° |
| 2026-05-07 18:07 | 50.53824 | -51.86256 | 40089 ft | 433 kts | 246° |
| 2026-05-07 18:07 | 50.51538 | -51.95034 | 40087 ft | 434 kts | 246° |
| 2026-05-07 18:08 | 50.49592 | -52.04036 | 40085 ft | 436 kts | 252° |
| 2026-05-07 18:08 | 50.48039 | -52.13273 | 40079 ft | 438 kts | 253° |
| 2026-05-07 18:09 | 50.46533 | -52.22571 | 40069 ft | 439 kts | 253° |
| 2026-05-07 18:09 | 50.45020 | -52.31862 | 40073 ft | 439 kts | 253° |
| 2026-05-07 18:10 | 50.43492 | -52.41142 | 40069 ft | 439 kts | 252° |
| 2026-05-07 18:10 | 50.41950 | -52.50412 | 40059 ft | 439 kts | 252° |
| 2026-05-07 18:11 | 50.40411 | -52.59616 | 40051 ft | 439 kts | 252° |
| 2026-05-07 18:11 | 50.38846 | -52.68928 | 40050 ft | 439 kts | 252° |
| 2026-05-07 18:12 | 50.37285 | -52.78161 | 40036 ft | 439 kts | 252° |
| 2026-05-07 18:12 | 50.35724 | -52.87334 | 40037 ft | 439 kts | 252° |
| 2026-05-07 18:13 | 50.34147 | -52.96570 | 40029 ft | 439 kts | 252° |
| 2026-05-07 18:13 | 50.32563 | -53.05801 | 40014 ft | 439 kts | 252° |
| 2026-05-07 18:14 | 50.30973 | -53.15014 | 40019 ft | 439 kts | 252° |
| 2026-05-07 18:14 | 50.29375 | -53.24224 | 40016 ft | 438 kts | 252° |
| 2026-05-07 18:15 | 50.27769 | -53.33430 | 40011 ft | 438 kts | 252° |
| 2026-05-07 18:15 | 50.26157 | -53.42627 | 39993 ft | 439 kts | 252° |
| 2026-05-07 18:16 | 50.24538 | -53.51819 | 39996 ft | 439 kts | 252° |
| 2026-05-07 18:16 | 50.22910 | -53.61004 | 39995 ft | 439 kts | 252° |
| 2026-05-07 18:17 | 50.21275 | -53.70187 | 39985 ft | 439 kts | 252° |
| 2026-05-07 18:17 | 50.19634 | -53.79359 | 39977 ft | 439 kts | 252° |
| 2026-05-07 18:18 | 50.17984 | -53.88534 | 39974 ft | 439 kts | 252° |
| 2026-05-07 18:18 | 50.16340 | -53.97627 | 39962 ft | 439 kts | 252° |
| 2026-05-07 18:19 | 50.14676 | -54.06790 | 39961 ft | 439 kts | 252° |
| 2026-05-07 18:19 | 50.13007 | -54.15929 | 39960 ft | 439 kts | 252° |
| 2026-05-07 18:20 | 50.11330 | -54.25065 | 39957 ft | 439 kts | 252° |
| 2026-05-07 18:20 | 50.09643 | -54.34207 | 39944 ft | 439 kts | 251° |
| 2026-05-07 18:21 | 50.07952 | -54.43331 | 39935 ft | 439 kts | 252° |
| 2026-05-07 18:21 | 50.06252 | -54.52457 | 39937 ft | 439 kts | 252° |
| 2026-05-07 18:22 | 50.04545 | -54.61580 | 39926 ft | 439 kts | 252° |
| 2026-05-07 18:22 | 50.02845 | -54.70630 | 39927 ft | 439 kts | 252° |
| 2026-05-07 18:23 | 50.01124 | -54.79743 | 39924 ft | 439 kts | 252° |
| 2026-05-07 18:23 | 49.99395 | -54.88836 | 39921 ft | 439 kts | 252° |
| 2026-05-07 18:24 | 49.97659 | -54.97917 | 39907 ft | 437 kts | 252° |
| 2026-05-07 18:24 | 49.95926 | -55.06961 | 39906 ft | 437 kts | 252° |
| 2026-05-07 18:25 | 49.94185 | -55.15995 | 39908 ft | 436 kts | 252° |
| 2026-05-07 18:25 | 49.92439 | -55.25024 | 39905 ft | 436 kts | 252° |
| 2026-05-07 18:26 | 49.90685 | -55.34035 | 39897 ft | 436 kts | 252° |
| 2026-05-07 18:26 | 49.88925 | -55.43041 | 39890 ft | 436 kts | 251° |
| 2026-05-07 18:27 | 49.87157 | -55.52028 | 39892 ft | 436 kts | 251° |
| 2026-05-07 18:27 | 49.85397 | -55.60947 | 39893 ft | 436 kts | 251° |
| 2026-05-07 18:28 | 49.83621 | -55.69920 | 39886 ft | 435 kts | 251° |
| 2026-05-07 18:28 | 49.81835 | -55.78889 | 39892 ft | 435 kts | 251° |
| 2026-05-07 18:29 | 49.80043 | -55.87854 | 39890 ft | 435 kts | 251° |
| 2026-05-07 18:29 | 49.78246 | -55.96795 | 39883 ft | 435 kts | 251° |
| 2026-05-07 18:30 | 49.76447 | -56.05718 | 39890 ft | 434 kts | 251° |
| 2026-05-07 18:30 | 49.74641 | -56.14627 | 39886 ft | 434 kts | 251° |
| 2026-05-07 18:31 | 49.73133 | -56.22026 | 39885 ft | 434 kts | 251° |
| 2026-05-07 18:31 | 49.71020 | -56.32363 | 39881 ft | 434 kts | 251° |
| 2026-05-07 18:32 | 49.69490 | -56.39809 | 39877 ft | 434 kts | 251° |
| 2026-05-07 18:32 | 49.67655 | -56.48693 | 39881 ft | 434 kts | 251° |
| 2026-05-07 18:33 | 49.65816 | -56.57558 | 39876 ft | 434 kts | 251° |
| 2026-05-07 18:33 | 49.63974 | -56.66419 | 39880 ft | 434 kts | 251° |
| 2026-05-07 18:34 | 49.62124 | -56.75279 | 39875 ft | 435 kts | 251° |
| 2026-05-07 18:34 | 49.60265 | -56.84128 | 39873 ft | 437 kts | 251° |
| 2026-05-07 18:35 | 49.58386 | -56.93030 | 39877 ft | 437 kts | 251° |
| 2026-05-07 18:35 | 49.56498 | -57.01945 | 39873 ft | 437 kts | 251° |
| 2026-05-07 18:36 | 49.54606 | -57.10845 | 39865 ft | 437 kts | 251° |
| 2026-05-07 18:36 | 49.52706 | -57.19737 | 39866 ft | 437 kts | 250° |
| 2026-05-07 18:37 | 49.50797 | -57.28622 | 39866 ft | 437 kts | 250° |
| 2026-05-07 18:37 | 49.48882 | -57.37501 | 39861 ft | 437 kts | 250° |
| 2026-05-07 18:38 | 49.46965 | -57.46373 | 39865 ft | 437 kts | 250° |
| 2026-05-07 18:38 | 49.45034 | -57.55246 | 39848 ft | 439 kts | 250° |
| 2026-05-07 18:39 | 49.43088 | -57.64143 | 39830 ft | 440 kts | 250° |
| 2026-05-07 18:39 | 49.41151 | -57.72984 | 39826 ft | 440 kts | 250° |
| 2026-05-07 18:40 | 49.39195 | -57.81870 | 39814 ft | 439 kts | 250° |
| 2026-05-07 18:40 | 49.37211 | -57.90738 | 39794 ft | 439 kts | 249° |
| 2026-05-07 18:41 | 49.35225 | -57.99584 | 39786 ft | 438 kts | 249° |
| 2026-05-07 18:41 | 49.33250 | -58.08408 | 39788 ft | 437 kts | 249° |
| 2026-05-07 18:42 | 49.31274 | -58.17221 | 39788 ft | 437 kts | 249° |
| 2026-05-07 18:42 | 49.29291 | -58.26039 | 39761 ft | 439 kts | 249° |
| 2026-05-07 18:43 | 49.27295 | -58.34879 | 39761 ft | 440 kts | 249° |
| 2026-05-07 18:43 | 49.25311 | -58.43726 | 39754 ft | 439 kts | 249° |
| 2026-05-07 18:44 | 49.23310 | -58.52565 | 39735 ft | 439 kts | 249° |
| 2026-05-07 18:44 | 49.21297 | -58.61381 | 39739 ft | 439 kts | 249° |
| 2026-05-07 18:45 | 49.19284 | -58.70137 | 39734 ft | 439 kts | 249° |
| 2026-05-07 18:45 | 49.17249 | -58.78939 | 39718 ft | 439 kts | 249° |
| 2026-05-07 18:46 | 49.15197 | -58.87719 | 39716 ft | 439 kts | 249° |
| 2026-05-07 18:46 | 49.13145 | -58.96501 | 39710 ft | 439 kts | 249° |
| 2026-05-07 18:47 | 49.11090 | -59.05290 | 39702 ft | 440 kts | 249° |
| 2026-05-07 18:47 | 49.09031 | -59.14068 | 39702 ft | 439 kts | 249° |
| 2026-05-07 18:48 | 49.06967 | -59.22844 | 39705 ft | 440 kts | 248° |
| 2026-05-07 18:48 | 49.04896 | -59.31613 | 39701 ft | 440 kts | 248° |
| 2026-05-07 18:49 | 49.02816 | -59.40376 | 39695 ft | 440 kts | 248° |
| 2026-05-07 18:49 | 49.00754 | -59.49030 | 39693 ft | 440 kts | 248° |
| 2026-05-07 18:50 | 48.98650 | -59.57833 | 39694 ft | 440 kts | 248° |
| 2026-05-07 18:50 | 48.96550 | -59.66579 | 39694 ft | 440 kts | 248° |
| 2026-05-07 18:51 | 48.94442 | -59.75322 | 39696 ft | 441 kts | 248° |
| 2026-05-07 18:51 | 48.92339 | -59.84007 | 39689 ft | 440 kts | 248° |
| 2026-05-07 18:52 | 48.90221 | -59.92722 | 39680 ft | 439 kts | 248° |
| 2026-05-07 18:52 | 48.88102 | -60.01413 | 39684 ft | 438 kts | 248° |
| 2026-05-07 18:53 | 48.85976 | -60.10083 | 39680 ft | 438 kts | 248° |
| 2026-05-07 18:53 | 48.83845 | -60.18760 | 39676 ft | 438 kts | 248° |
| 2026-05-07 18:54 | 48.81733 | -60.27312 | 39675 ft | 438 kts | 248° |
| 2026-05-07 18:54 | 48.79587 | -60.35965 | 39683 ft | 437 kts | 248° |
| 2026-05-07 18:55 | 48.77440 | -60.44602 | 39674 ft | 437 kts | 248° |
| 2026-05-07 18:55 | 48.75291 | -60.53208 | 39663 ft | 436 kts | 248° |
| 2026-05-07 18:56 | 48.73137 | -60.61798 | 39662 ft | 436 kts | 248° |
| 2026-05-07 18:56 | 48.70992 | -60.70322 | 39664 ft | 436 kts | 248° |
| 2026-05-07 18:57 | 48.68829 | -60.78901 | 39658 ft | 435 kts | 248° |
| 2026-05-07 18:57 | 48.66668 | -60.87417 | 39656 ft | 433 kts | 248° |
| 2026-05-07 18:58 | 48.64502 | -60.95917 | 39656 ft | 432 kts | 248° |
| 2026-05-07 18:58 | 48.62336 | -61.04389 | 39675 ft | 433 kts | 247° |
| 2026-05-07 18:59 | 48.60162 | -61.12871 | 39649 ft | 433 kts | 247° |
| 2026-05-07 18:59 | 48.57983 | -61.21350 | 39651 ft | 433 kts | 247° |
| 2026-05-07 19:00 | 48.55807 | -61.29785 | 39643 ft | 430 kts | 247° |
| 2026-05-07 19:00 | 48.53632 | -61.38170 | 39646 ft | 428 kts | 247° |
| 2026-05-07 19:01 | 48.51453 | -61.46531 | 39650 ft | 429 kts | 247° |
| 2026-05-07 19:01 | 48.49266 | -61.54898 | 39647 ft | 428 kts | 247° |
| 2026-05-07 19:02 | 48.47077 | -61.63245 | 39647 ft | 428 kts | 247° |
| 2026-05-07 19:02 | 48.44879 | -61.71594 | 39673 ft | 428 kts | 246° |
| 2026-05-07 19:03 | 48.42696 | -61.79877 | 39650 ft | 429 kts | 246° |
| 2026-05-07 19:03 | 48.40489 | -61.88209 | 39647 ft | 429 kts | 246° |
| 2026-05-07 19:04 | 48.38271 | -61.96538 | 39652 ft | 429 kts | 246° |
| 2026-05-07 19:04 | 48.36050 | -62.04864 | 39651 ft | 429 kts | 246° |
| 2026-05-07 19:05 | 48.33827 | -62.13187 | 39650 ft | 429 kts | 246° |
| 2026-05-07 19:05 | 48.31593 | -62.21485 | 39647 ft | 428 kts | 246° |
| 2026-05-07 19:06 | 48.29356 | -62.29764 | 39653 ft | 428 kts | 246° |
| 2026-05-07 19:06 | 48.25995 | -62.42173 | 39663 ft | 428 kts | 246° |
| 2026-05-07 19:07 | 48.23740 | -62.50477 | 39651 ft | 430 kts | 246° |
| 2026-05-07 19:07 | 48.21472 | -62.58776 | 39650 ft | 431 kts | 246° |
| 2026-05-07 19:08 | 48.19195 | -62.67082 | 39650 ft | 430 kts | 246° |
| 2026-05-07 19:08 | 48.16915 | -62.75373 | 39650 ft | 430 kts | 246° |
| 2026-05-07 19:09 | 48.14632 | -62.83650 | 39650 ft | 430 kts | 246° |
| 2026-05-07 19:09 | 48.12342 | -62.91923 | 39649 ft | 430 kts | 246° |
| 2026-05-07 19:10 | 48.10044 | -63.00185 | 39650 ft | 430 kts | 246° |
| 2026-05-07 19:10 | 48.07744 | -63.08426 | 39651 ft | 429 kts | 246° |
| 2026-05-07 19:11 | 48.05439 | -63.16666 | 39650 ft | 429 kts | 245° |
| 2026-05-07 19:11 | 48.03124 | -63.24890 | 39647 ft | 430 kts | 245° |
| 2026-05-07 19:12 | 48.00806 | -63.33117 | 39647 ft | 429 kts | 245° |
| 2026-05-07 19:12 | 47.98488 | -63.41330 | 39647 ft | 429 kts | 245° |
| 2026-05-07 19:13 | 47.96160 | -63.49540 | 39644 ft | 430 kts | 245° |
| 2026-05-07 19:13 | 47.93836 | -63.57702 | 39644 ft | 429 kts | 245° |
| 2026-05-07 19:14 | 47.91497 | -63.65894 | 39645 ft | 429 kts | 245° |
| 2026-05-07 19:14 | 47.89151 | -63.74076 | 39658 ft | 430 kts | 245° |
| 2026-05-07 19:15 | 47.86795 | -63.82262 | 39642 ft | 430 kts | 245° |
| 2026-05-07 19:15 | 47.84480 | -63.90481 | 39639 ft | 430 kts | 250° |
| 2026-05-07 19:16 | 47.82251 | -63.98748 | 39640 ft | 430 kts | 249° |
| 2026-05-07 19:16 | 47.79784 | -64.06813 | 39639 ft | 428 kts | 244° |
| 2026-05-07 19:17 | 47.77370 | -64.14844 | 39639 ft | 428 kts | 245° |
| 2026-05-07 19:17 | 47.74990 | -64.22955 | 39639 ft | 428 kts | 245° |
| 2026-05-07 19:18 | 47.72615 | -64.31073 | 39636 ft | 428 kts | 245° |
| 2026-05-07 19:18 | 47.70235 | -64.39176 | 39674 ft | 428 kts | 245° |
| 2026-05-07 19:19 | 47.67842 | -64.47284 | 39627 ft | 430 kts | 245° |
| 2026-05-07 19:19 | 47.65432 | -64.55411 | 39638 ft | 431 kts | 245° |
| 2026-05-07 19:20 | 47.63015 | -64.63543 | 39643 ft | 431 kts | 245° |
| 2026-05-07 19:20 | 47.60591 | -64.71670 | 39627 ft | 431 kts | 245° |
| 2026-05-07 19:21 | 47.58165 | -64.79783 | 39616 ft | 431 kts | 245° |
| 2026-05-07 19:21 | 47.55733 | -64.87887 | 39638 ft | 430 kts | 245° |
| 2026-05-07 19:22 | 47.53709 | -64.94605 | 39639 ft | 430 kts | 245° |
| 2026-05-07 19:22 | 47.51265 | -65.02696 | 39638 ft | 430 kts | 245° |
| 2026-05-07 19:23 | 47.48812 | -65.10792 | 39643 ft | 433 kts | 245° |
| 2026-05-07 19:23 | 47.46338 | -65.18920 | 39646 ft | 434 kts | 245° |
| 2026-05-07 19:24 | 47.43855 | -65.27063 | 39643 ft | 434 kts | 245° |
| 2026-05-07 19:24 | 47.41372 | -65.35180 | 39650 ft | 433 kts | 245° |
| 2026-05-07 19:25 | 47.38887 | -65.43276 | 39644 ft | 433 kts | 245° |
| 2026-05-07 19:25 | 47.36394 | -65.51371 | 39649 ft | 433 kts | 245° |
| 2026-05-07 19:26 | 47.33895 | -65.59459 | 39653 ft | 433 kts | 245° |
| 2026-05-07 19:26 | 47.31390 | -65.67539 | 39681 ft | 433 kts | 245° |
| 2026-05-07 19:27 | 47.28878 | -65.75613 | 39653 ft | 434 kts | 245° |
| 2026-05-07 19:27 | 47.26353 | -65.83707 | 39648 ft | 435 kts | 245° |
| 2026-05-07 19:28 | 47.23823 | -65.91788 | 39654 ft | 435 kts | 245° |
| 2026-05-07 19:28 | 47.21304 | -65.99813 | 39647 ft | 435 kts | 245° |
| 2026-05-07 19:29 | 47.18765 | -66.07873 | 39639 ft | 435 kts | 245° |
| 2026-05-07 19:29 | 47.16224 | -66.15911 | 39650 ft | 433 kts | 245° |
| 2026-05-07 19:30 | 47.13686 | -66.23920 | 39648 ft | 432 kts | 245° |
| 2026-05-07 19:30 | 47.11144 | -66.31919 | 39676 ft | 433 kts | 245° |
| 2026-05-07 19:31 | 47.08583 | -66.39942 | 39654 ft | 435 kts | 245° |
| 2026-05-07 19:31 | 47.06013 | -66.47974 | 39650 ft | 435 kts | 245° |
| 2026-05-07 19:32 | 47.03442 | -66.55981 | 39655 ft | 433 kts | 245° |
| 2026-05-07 19:32 | 47.00873 | -66.63961 | 39656 ft | 432 kts | 245° |
| 2026-05-07 19:33 | 46.98301 | -66.71922 | 39656 ft | 432 kts | 245° |
| 2026-05-07 19:33 | 46.96128 | -66.78632 | 39657 ft | 432 kts | 245° |
| 2026-05-07 19:34 | 46.93550 | -66.86568 | 39661 ft | 432 kts | 245° |
| 2026-05-07 19:34 | 46.90962 | -66.94507 | 39676 ft | 432 kts | 245° |
| 2026-05-07 19:35 | 46.88126 | -67.02237 | 39668 ft | 433 kts | 237° |
| 2026-05-07 19:35 | 46.84135 | -67.08731 | 39663 ft | 435 kts | 223° |
| 2026-05-07 19:36 | 46.79318 | -67.14099 | 39669 ft | 435 kts | 221° |
| 2026-05-07 19:36 | 46.74486 | -67.19407 | 39665 ft | 434 kts | 221° |
| 2026-05-07 19:37 | 46.69676 | -67.24723 | 39670 ft | 433 kts | 221° |
| 2026-05-07 19:37 | 46.64873 | -67.30034 | 39670 ft | 433 kts | 221° |
| 2026-05-07 19:38 | 46.60081 | -67.35341 | 39667 ft | 433 kts | 220° |
| 2026-05-07 19:38 | 46.55247 | -67.40584 | 39671 ft | 433 kts | 221° |
| 2026-05-07 19:39 | 46.50452 | -67.45892 | 39677 ft | 433 kts | 221° |
| 2026-05-07 19:39 | 46.45657 | -67.51174 | 39675 ft | 433 kts | 221° |
| 2026-05-07 19:40 | 46.40846 | -67.56443 | 39677 ft | 433 kts | 221° |
| 2026-05-07 19:40 | 46.36075 | -67.61652 | 39667 ft | 431 kts | 221° |
| 2026-05-07 19:41 | 46.31256 | -67.66900 | 39663 ft | 430 kts | 221° |
| 2026-05-07 19:41 | 46.26507 | -67.72062 | 39659 ft | 430 kts | 221° |
| 2026-05-07 19:42 | 46.21716 | -67.77258 | 39642 ft | 430 kts | 221° |
| 2026-05-07 19:42 | 46.16903 | -67.82467 | 39654 ft | 430 kts | 221° |
| 2026-05-07 19:43 | 46.12147 | -67.87601 | 39658 ft | 429 kts | 221° |
| 2026-05-07 19:43 | 46.07365 | -67.92753 | 39654 ft | 429 kts | 221° |
| 2026-05-07 19:44 | 46.02580 | -67.97895 | 39663 ft | 429 kts | 221° |
| 2026-05-07 19:44 | 45.97799 | -68.03024 | 39679 ft | 429 kts | 221° |
| 2026-05-07 19:45 | 45.93017 | -68.08145 | 39682 ft | 428 kts | 221° |
| 2026-05-07 19:45 | 45.88228 | -68.13257 | 39693 ft | 429 kts | 221° |
| 2026-05-07 19:46 | 45.83447 | -68.18350 | 39706 ft | 427 kts | 221° |
| 2026-05-07 19:46 | 45.78682 | -68.23413 | 39688 ft | 426 kts | 221° |
| 2026-05-07 19:47 | 45.73910 | -68.28476 | 39702 ft | 426 kts | 221° |
| 2026-05-07 19:47 | 45.69141 | -68.33524 | 39701 ft | 426 kts | 221° |
| 2026-05-07 19:48 | 45.64383 | -68.38551 | 39707 ft | 425 kts | 221° |
| 2026-05-07 19:48 | 45.59623 | -68.43568 | 39748 ft | 425 kts | 221° |
| 2026-05-07 19:49 | 45.54849 | -68.48590 | 39702 ft | 428 kts | 221° |
| 2026-05-07 19:49 | 45.50051 | -68.53623 | 39699 ft | 427 kts | 221° |
| 2026-05-07 19:50 | 45.45275 | -68.58622 | 39706 ft | 425 kts | 221° |
| 2026-05-07 19:50 | 45.40533 | -68.63577 | 39708 ft | 425 kts | 221° |
| 2026-05-07 19:51 | 45.35734 | -68.68579 | 39695 ft | 425 kts | 221° |
| 2026-05-07 19:51 | 45.30971 | -68.73535 | 39707 ft | 423 kts | 221° |
| 2026-05-07 19:52 | 45.26254 | -68.78433 | 39708 ft | 422 kts | 221° |
| 2026-05-07 19:52 | 45.21511 | -68.83348 | 39708 ft | 422 kts | 221° |
| 2026-05-07 19:53 | 45.16764 | -68.88254 | 39699 ft | 422 kts | 222° |
| 2026-05-07 19:53 | 45.12027 | -68.93141 | 39705 ft | 420 kts | 222° |
| 2026-05-07 19:54 | 45.07301 | -68.98006 | 39702 ft | 420 kts | 222° |
| 2026-05-07 19:54 | 45.02573 | -69.02863 | 39702 ft | 420 kts | 221° |
| 2026-05-07 19:55 | 44.97838 | -69.07716 | 39698 ft | 420 kts | 222° |
| 2026-05-07 19:55 | 44.93116 | -69.12549 | 39703 ft | 419 kts | 222° |
| 2026-05-07 19:56 | 44.88388 | -69.17375 | 39703 ft | 419 kts | 222° |
| 2026-05-07 19:56 | 44.83658 | -69.22193 | 39704 ft | 420 kts | 222° |
| 2026-05-07 19:57 | 44.78927 | -69.27005 | 39706 ft | 419 kts | 222° |
| 2026-05-07 19:57 | 44.74193 | -69.31806 | 39709 ft | 419 kts | 221° |
| 2026-05-07 19:58 | 44.69457 | -69.36600 | 39707 ft | 420 kts | 222° |
| 2026-05-07 19:58 | 44.64717 | -69.41391 | 39703 ft | 420 kts | 222° |
| 2026-05-07 19:59 | 44.60007 | -69.46142 | 39706 ft | 420 kts | 222° |
| 2026-05-07 19:59 | 44.55262 | -69.50918 | 39703 ft | 420 kts | 222° |
| 2026-05-07 20:00 | 44.50519 | -69.55682 | 39669 ft | 419 kts | 222° |
| 2026-05-07 20:00 | 44.45778 | -69.60433 | 39702 ft | 419 kts | 222° |
| 2026-05-07 20:01 | 44.41033 | -69.65178 | 39703 ft | 419 kts | 222° |
| 2026-05-07 20:01 | 44.36287 | -69.69915 | 39730 ft | 419 kts | 222° |
| 2026-05-07 20:02 | 44.31523 | -69.74609 | 39719 ft | 419 kts | 221° |
| 2026-05-07 20:02 | 44.26772 | -69.79293 | 39733 ft | 417 kts | 221° |
| 2026-05-07 20:03 | 44.22034 | -69.83978 | 39750 ft | 417 kts | 221° |
| 2026-05-07 20:03 | 44.17306 | -69.88655 | 39740 ft | 417 kts | 221° |
| 2026-05-07 20:04 | 44.12573 | -69.93330 | 39733 ft | 416 kts | 221° |
| 2026-05-07 20:04 | 44.07857 | -69.97983 | 39750 ft | 416 kts | 221° |
| 2026-05-07 20:05 | 44.03138 | -70.02625 | 39759 ft | 415 kts | 221° |
| 2026-05-07 20:05 | 43.98413 | -70.07267 | 39739 ft | 417 kts | 221° |
| 2026-05-07 20:06 | 43.93681 | -70.11903 | 39749 ft | 415 kts | 221° |
| 2026-05-07 20:06 | 43.88970 | -70.16517 | 39750 ft | 415 kts | 221° |
| 2026-05-07 20:07 | 43.84279 | -70.21105 | 39751 ft | 415 kts | 221° |
| 2026-05-07 20:07 | 43.79571 | -70.25693 | 39746 ft | 412 kts | 221° |
| 2026-05-07 20:08 | 43.74884 | -70.30252 | 39746 ft | 412 kts | 221° |
| 2026-05-07 20:08 | 43.70197 | -70.34801 | 39757 ft | 411 kts | 221° |
| 2026-05-07 20:09 | 43.65518 | -70.39342 | 39761 ft | 410 kts | 223° |
| 2026-05-07 20:10 | 43.59342 | -70.45416 | 39766 ft | 410 kts | 223° |
| 2026-05-07 20:10 | 43.54681 | -70.49946 | 39769 ft | 410 kts | 223° |
| 2026-05-07 20:11 | 43.50007 | -70.54456 | 39744 ft | 410 kts | 223° |
| 2026-05-07 20:11 | 43.45349 | -70.58934 | 39767 ft | 407 kts | 223° |
| 2026-05-07 20:12 | 43.40313 | -70.62701 | 39772 ft | 420 kts | 211° |
| 2026-05-07 20:12 | 43.34804 | -70.65440 | 39766 ft | 421 kts | 210° |
| 2026-05-07 20:13 | 43.29288 | -70.68132 | 39768 ft | 419 kts | 210° |
| 2026-05-07 20:13 | 43.23818 | -70.70813 | 39769 ft | 418 kts | 210° |
| 2026-05-07 20:14 | 43.18346 | -70.73495 | 39759 ft | 417 kts | 210° |
| 2026-05-07 20:14 | 43.12878 | -70.76171 | 39757 ft | 417 kts | 210° |
| 2026-05-07 20:15 | 43.07409 | -70.78841 | 39758 ft | 417 kts | 210° |
| 2026-05-07 20:15 | 43.01942 | -70.81505 | 39758 ft | 417 kts | 210° |
| 2026-05-07 20:16 | 42.96472 | -70.84157 | 39742 ft | 417 kts | 210° |
| 2026-05-07 20:16 | 42.91022 | -70.86795 | 39759 ft | 414 kts | 210° |
| 2026-05-07 20:17 | 42.85598 | -70.89423 | 39797 ft | 414 kts | 210° |
| 2026-05-07 20:17 | 42.80153 | -70.92060 | 39745 ft | 416 kts | 210° |
| 2026-05-07 20:18 | 42.74704 | -70.94686 | 39791 ft | 414 kts | 210° |
| 2026-05-07 20:18 | 42.69321 | -70.97275 | 39793 ft | 412 kts | 210° |
| 2026-05-07 20:19 | 42.63906 | -70.99884 | 39776 ft | 413 kts | 210° |
| 2026-05-07 20:19 | 42.58494 | -71.02481 | 39771 ft | 411 kts | 211° |
| 2026-05-07 20:20 | 42.53108 | -71.05062 | 39781 ft | 410 kts | 211° |
| 2026-05-07 20:20 | 42.47727 | -71.07636 | 39781 ft | 410 kts | 211° |
| 2026-05-07 20:21 | 42.42343 | -71.10207 | 39765 ft | 409 kts | 211° |
| 2026-05-07 20:21 | 42.36980 | -71.12763 | 39777 ft | 408 kts | 211° |
| 2026-05-07 20:22 | 42.31637 | -71.15305 | 39779 ft | 407 kts | 211° |
| 2026-05-07 20:22 | 42.26298 | -71.17840 | 39785 ft | 407 kts | 211° |
| 2026-05-07 20:23 | 42.20961 | -71.20368 | 39787 ft | 404 kts | 211° |
| 2026-05-07 20:23 | 42.15666 | -71.22872 | 39795 ft | 403 kts | 211° |
| 2026-05-07 20:24 | 42.10378 | -71.25371 | 39799 ft | 403 kts | 211° |
| 2026-05-07 20:24 | 42.05125 | -71.27848 | 39789 ft | 402 kts | 211° |
| 2026-05-07 20:25 | 41.99871 | -71.30321 | 39793 ft | 400 kts | 211° |
| 2026-05-07 20:25 | 41.94617 | -71.32791 | 39796 ft | 400 kts | 211° |
| 2026-05-07 20:26 | 41.89359 | -71.35258 | 39795 ft | 400 kts | 211° |
| 2026-05-07 20:26 | 41.84124 | -71.37707 | 39792 ft | 396 kts | 212° |
| 2026-05-07 20:27 | 41.78934 | -71.40134 | 39794 ft | 394 kts | 212° |
| 2026-05-07 20:27 | 41.73830 | -71.42728 | 39798 ft | 386 kts | 217° |
| 2026-05-07 20:28 | 41.69432 | -71.46523 | 39779 ft | 371 kts | 228° |
| 2026-05-07 20:28 | 41.65487 | -71.50948 | 39796 ft | 370 kts | 228° |
| 2026-05-07 20:29 | 41.61544 | -71.55371 | 39785 ft | 370 kts | 228° |
| 2026-05-07 20:29 | 41.57572 | -71.59802 | 39784 ft | 373 kts | 228° |
| 2026-05-07 20:30 | 41.53580 | -71.64246 | 39789 ft | 374 kts | 228° |
| 2026-05-07 20:30 | 41.50043 | -71.68171 | 39772 ft | 371 kts | 228° |
| 2026-05-07 20:30 | 41.48107 | -71.70311 | 39658 ft | 362 kts | 228° |
| 2026-05-07 20:31 | 41.46174 | -71.72451 | 39023 ft | 360 kts | 228° |
| 2026-05-07 20:31 | 41.44254 | -71.74579 | 38438 ft | 358 kts | 228° |
| 2026-05-07 20:31 | 41.42342 | -71.76697 | 37789 ft | 355 kts | 227° |
| 2026-05-07 20:31 | 41.40458 | -71.78781 | 37231 ft | 350 kts | 228° |
| 2026-05-07 20:32 | 41.38593 | -71.80841 | 36678 ft | 346 kts | 228° |
| 2026-05-07 20:32 | 41.36751 | -71.82874 | 36126 ft | 342 kts | 228° |
| 2026-05-07 20:32 | 41.34930 | -71.84886 | 35570 ft | 339 kts | 228° |
| 2026-05-07 20:32 | 41.33125 | -71.86880 | 35005 ft | 336 kts | 228° |
| 2026-05-07 20:33 | 41.31335 | -71.88853 | 34516 ft | 332 kts | 228° |
| 2026-05-07 20:33 | 41.29545 | -71.90829 | 34271 ft | 339 kts | 228° |
| 2026-05-07 20:33 | 41.27722 | -71.92851 | 34164 ft | 342 kts | 228° |
| 2026-05-07 20:33 | 41.25925 | -71.94912 | 34034 ft | 341 kts | 229° |
| 2026-05-07 20:34 | 41.24120 | -71.96960 | 34017 ft | 342 kts | 228° |
| 2026-05-07 20:34 | 41.20461 | -72.00981 | 34017 ft | 341 kts | 227° |
| 2026-05-07 20:35 | 41.16778 | -72.04967 | 33966 ft | 342 kts | 227° |
| 2026-05-07 20:35 | 41.13412 | -72.09316 | 33967 ft | 335 kts | 237° |
| 2026-05-07 20:36 | 41.10862 | -72.14436 | 33965 ft | 333 kts | 242° |
| 2026-05-07 20:36 | 41.08532 | -72.19772 | 33956 ft | 334 kts | 242° |
| 2026-05-07 20:36 | 41.07351 | -72.22417 | 33807 ft | 332 kts | 242° |
| 2026-05-07 20:37 | 41.06171 | -72.24995 | 33494 ft | 323 kts | 241° |
| 2026-05-07 20:37 | 41.05003 | -72.27501 | 33099 ft | 317 kts | 241° |
| 2026-05-07 20:37 | 41.03848 | -72.29950 | 32654 ft | 310 kts | 240° |
| 2026-05-07 20:37 | 41.02711 | -72.32347 | 32189 ft | 304 kts | 240° |
| 2026-05-07 20:38 | 41.01613 | -72.34654 | 31824 ft | 297 kts | 240° |
| 2026-05-07 20:38 | 41.00518 | -72.36953 | 31445 ft | 294 kts | 240° |
| 2026-05-07 20:38 | 40.99432 | -72.39241 | 31049 ft | 293 kts | 240° |
| 2026-05-07 20:38 | 40.98350 | -72.41526 | 30657 ft | 291 kts | 240° |
| 2026-05-07 20:39 | 40.97281 | -72.43787 | 30273 ft | 289 kts | 240° |
| 2026-05-07 20:39 | 40.96217 | -72.46037 | 29865 ft | 288 kts | 240° |
| 2026-05-07 20:39 | 40.95157 | -72.48274 | 29458 ft | 286 kts | 240° |
| 2026-05-07 20:39 | 40.94103 | -72.50497 | 29063 ft | 284 kts | 240° |
| 2026-05-07 20:40 | 40.93057 | -72.52701 | 28669 ft | 283 kts | 240° |
| 2026-05-07 20:40 | 40.92012 | -72.54900 | 28281 ft | 281 kts | 240° |
| 2026-05-07 20:40 | 40.90973 | -72.57087 | 27902 ft | 280 kts | 240° |
| 2026-05-07 20:40 | 40.89941 | -72.59258 | 27522 ft | 278 kts | 240° |
| 2026-05-07 20:41 | 40.88910 | -72.61419 | 27168 ft | 278 kts | 240° |
| 2026-05-07 20:41 | 40.87877 | -72.63583 | 26763 ft | 278 kts | 240° |
| 2026-05-07 20:41 | 40.86849 | -72.65742 | 26322 ft | 277 kts | 240° |
| 2026-05-07 20:41 | 40.85827 | -72.67888 | 25968 ft | 275 kts | 240° |
| 2026-05-07 20:42 | 40.84812 | -72.70016 | 25565 ft | 273 kts | 240° |
| 2026-05-07 20:42 | 40.83802 | -72.72135 | 25117 ft | 272 kts | 240° |
| 2026-05-07 20:42 | 40.82775 | -72.74231 | 24699 ft | 271 kts | 239° |
| 2026-05-07 20:42 | 40.81760 | -72.76311 | 24381 ft | 267 kts | 241° |
| 2026-05-07 20:43 | 40.80942 | -72.78440 | 23954 ft | 255 kts | 245° |
| 2026-05-07 20:43 | 40.80209 | -72.80561 | 23031 ft | 254 kts | 245° |
| 2026-05-07 20:43 | 40.79485 | -72.82659 | 21949 ft | 255 kts | 246° |
| 2026-05-07 20:43 | 40.78742 | -72.84805 | 20873 ft | 258 kts | 246° |
| 2026-05-07 20:44 | 40.77997 | -72.86943 | 20080 ft | 254 kts | 246° |
| 2026-05-07 20:44 | 40.77266 | -72.89036 | 19479 ft | 251 kts | 246° |
| 2026-05-07 20:44 | 40.76533 | -72.91133 | 18885 ft | 252 kts | 247° |
| 2026-05-07 20:44 | 40.75798 | -72.93236 | 18303 ft | 253 kts | 247° |
| 2026-05-07 20:45 | 40.75059 | -72.95351 | 17692 ft | 254 kts | 247° |
| 2026-05-07 20:45 | 40.74315 | -72.97477 | 17026 ft | 255 kts | 247° |
| 2026-05-07 20:45 | 40.73571 | -72.99599 | 16378 ft | 256 kts | 247° |
| 2026-05-07 20:45 | 40.72820 | -73.01749 | 15746 ft | 260 kts | 247° |
| 2026-05-07 20:46 | 40.72058 | -73.03933 | 15114 ft | 263 kts | 246° |
| 2026-05-07 20:46 | 40.71287 | -73.06139 | 14508 ft | 267 kts | 246° |
| 2026-05-07 20:46 | 40.70506 | -73.08371 | 13915 ft | 269 kts | 246° |
| 2026-05-07 20:46 | 40.69716 | -73.10620 | 13283 ft | 272 kts | 246° |
| 2026-05-07 20:47 | 40.68913 | -73.12878 | 12633 ft | 274 kts | 247° |
| 2026-05-07 20:47 | 40.68111 | -73.15163 | 11993 ft | 275 kts | 248° |
| 2026-05-07 20:47 | 40.67307 | -73.17461 | 11353 ft | 274 kts | 248° |
| 2026-05-07 20:47 | 40.66523 | -73.19694 | 10727 ft | 263 kts | 249° |
| 2026-05-07 20:48 | 40.65757 | -73.21843 | 10117 ft | 254 kts | 249° |
| 2026-05-07 20:48 | 40.65013 | -73.23913 | 9499 ft | 246 kts | 249° |
| 2026-05-07 20:48 | 40.64295 | -73.25922 | 8846 ft | 246 kts | 250° |
| 2026-05-07 20:48 | 40.63567 | -73.27967 | 8245 ft | 248 kts | 250° |
| 2026-05-07 20:49 | 40.62836 | -73.30031 | 7761 ft | 249 kts | 251° |
| 2026-05-07 20:49 | 40.62099 | -73.32113 | 7273 ft | 253 kts | 250° |
| 2026-05-07 20:49 | 40.61349 | -73.34236 | 6811 ft | 259 kts | 250° |
| 2026-05-07 20:49 | 40.60586 | -73.36394 | 6343 ft | 261 kts | 250° |
| 2026-05-07 20:50 | 40.59818 | -73.38568 | 5850 ft | 262 kts | 250° |
| 2026-05-07 20:50 | 40.59043 | -73.40746 | 5362 ft | 263 kts | 250° |
| 2026-05-07 20:50 | 40.58271 | -73.42924 | 4882 ft | 263 kts | 250° |
| 2026-05-07 20:50 | 40.57494 | -73.45100 | 4384 ft | 260 kts | 249° |
| 2026-05-07 20:51 | 40.56743 | -73.47185 | 3970 ft | 244 kts | 249° |
| 2026-05-07 20:51 | 40.56024 | -73.49177 | 3546 ft | 238 kts | 249° |
| 2026-05-07 20:51 | 40.55327 | -73.51127 | 3267 ft | 232 kts | 249° |
| 2026-05-07 20:51 | 40.54873 | -73.53093 | 3041 ft | 219 kts | 274° |
| 2026-05-07 20:52 | 40.55065 | -73.54984 | 2996 ft | 198 kts | 287° |
| 2026-05-07 20:52 | 40.55591 | -73.56528 | 3006 ft | 174 kts | 306° |
| 2026-05-07 20:52 | 40.56237 | -73.57872 | 3008 ft | 175 kts | 303° |
| 2026-05-07 20:52 | 40.56857 | -73.59240 | 2975 ft | 174 kts | 303° |
| 2026-05-07 20:53 | 40.57461 | -73.60616 | 2788 ft | 174 kts | 301° |
| 2026-05-07 20:53 | 40.58058 | -73.61986 | 2527 ft | 170 kts | 303° |
| 2026-05-07 20:53 | 40.58653 | -73.63277 | 2293 ft | 164 kts | 302° |
| 2026-05-07 20:53 | 40.59228 | -73.64547 | 2086 ft | 160 kts | 302° |
| 2026-05-07 20:54 | 40.59791 | -73.65797 | 1848 ft | 156 kts | 302° |
| 2026-05-07 20:54 | 40.60329 | -73.66984 | 1645 ft | 146 kts | 302° |
| 2026-05-07 20:54 | 40.60831 | -73.68095 | 1449 ft | 138 kts | 302° |
| 2026-05-07 20:54 | 40.61318 | -73.69169 | 1281 ft | 135 kts | 303° |
| 2026-05-07 20:55 | 40.61794 | -73.70232 | 1094 ft | 135 kts | 302° |
| 2026-05-07 20:55 | 40.62118 | -73.70948 | 968 ft | 135 kts | 303° |
| 2026-05-07 20:55 | 40.62609 | -73.71999 | 780 ft | 134 kts | 304° |
| 2026-05-07 20:55 | 40.63070 | -73.73067 | 595 ft | 134 kts | 304° |
| 2026-05-07 20:56 | 40.63551 | -73.74125 | 416 ft | 136 kts | 306° |
| 2026-05-07 20:56 | 40.64041 | -73.75191 | 240 ft | 136 kts | 307° |
| 2026-05-07 20:56 | 40.64519 | -73.76252 | 53 ft | 135 kts | 306° |
| 2026-05-07 20:56 | 40.64956 | -73.77213 | 29 ft | 101 kts | 301° |
| 2026-05-07 20:57 | 40.65231 | -73.77819 | 29 ft | 47 kts | 301° |
| 2026-05-07 20:57 | 40.65311 | -73.78101 | 28 ft | 15 kts | 275° |
| 2026-05-07 20:57 | 40.65314 | -73.78211 | 31 ft | 12 kts | 271° |
| 2026-05-07 20:57 | 40.65336 | -73.78328 | 31 ft | 15 kts | 295° |
| 2026-05-07 20:58 | 40.65362 | -73.78424 | 30 ft | 10 kts | 264° |
| 2026-05-07 20:58 | 40.65305 | -73.78464 | 29 ft | 11 kts | 158° |
| 2026-05-07 20:58 | 40.65259 | -73.78372 | 30 ft | 13 kts | 112° |
| 2026-05-07 20:58 | 40.65214 | -73.78264 | 32 ft | 15 kts | 121° |
| 2026-05-07 20:59 | 40.65153 | -73.78129 | 29 ft | 20 kts | 121° |
| 2026-05-07 20:59 | 40.65077 | -73.77961 | 28 ft | 23 kts | 121° |
| 2026-05-07 20:59 | 40.64987 | -73.77764 | 30 ft | 27 kts | 121° |
| 2026-05-07 20:59 | 40.64890 | -73.77548 | 32 ft | 27 kts | 121° |
| 2026-05-07 21:00 | 40.64831 | -73.77420 | 28 ft | 13 kts | 121° |
| 2026-05-07 21:00 | 40.64783 | -73.77312 | 29 ft | 15 kts | 121° |
| 2026-05-07 21:00 | 40.64719 | -73.77174 | 28 ft | 19 kts | 122° |
| 2026-05-07 21:00 | 40.64636 | -73.77094 | 28 ft | 14 kts | 168° |
| 2026-05-07 21:01 | 40.64526 | -73.77089 | 27 ft | 18 kts | 180° |
| 2026-05-07 21:01 | 40.64442 | -73.77104 | 28 ft | 11 kts | 199° |
| 2026-05-07 21:01 | 40.64366 | -73.77156 | 28 ft | 14 kts | 210° |
| 2026-05-07 21:01 | 40.64275 | -73.77226 | 29 ft | 16 kts | 211° |
| 2026-05-07 21:02 | 40.64184 | -73.77298 | 31 ft | 14 kts | 211° |
| 2026-05-07 21:02 | 40.64100 | -73.77363 | 29 ft | 12 kts | 211° |
| 2026-05-07 21:02 | 40.64073 | -73.77417 | 28 ft | 5 kts | 277° |
| 2026-05-07 21:02 | 40.64085 | -73.77453 | 28 ft | 4 kts | 301° |
| 2026-05-07 21:03 | 40.64112 | -73.77494 | 29 ft | 9 kts | 316° |
| 2026-05-07 21:03 | 40.64186 | -73.77558 | 29 ft | 16 kts | 330° |
| 2026-05-07 21:03 | 40.64301 | -73.77642 | 29 ft | 19 kts | 331° |
| 2026-05-07 21:03 | 40.64387 | -73.77721 | 29 ft | 12 kts | 312° |
| 2026-05-07 21:04 | 40.64431 | -73.77804 | 29 ft | 10 kts | 296° |
| 2026-05-07 21:04 | 40.64451 | -73.77884 | 29 ft | 9 kts | 283° |
| 2026-05-07 21:04 | 40.64451 | -73.77946 | 29 ft | 6 kts | 252° |
| 2026-05-07 21:04 | 40.64439 | -73.77967 | 29 ft | 2 kts | 232° |
| 2026-05-07 21:05 | 40.64433 | -73.77978 | 29 ft | 0 kts | 231° |
| 2026-05-07 21:05 | 40.64432 | -73.77978 | 29 ft | 0 kts | 231° |